Observation data for Guadalupe Mtns Park on 01/19/2019      Previous  Date  Next       Current Mesonet Observations  Soil Data  Daily Summary Page  Observations in Plain Language
KGU1 190600Z 30009KT 05/M10 A3018 RMK A01 T00461100  RH  034%=      5-min Rain = 0
KGU1 190601Z 31009KT 05/M10 A3018 RMK A01 T00471100  RH  034%=      5-min Rain = 0
KGU1 190602Z 32007KT 05/M10 A3018 RMK A01 T00471100  RH  034%=      5-min Rain = 0
KGU1 190603Z 33007KT 05/M10 A3018 RMK A01 T00471099  RH  034%=      5-min Rain = 0
KGU1 190604Z 33006KT 05/M10 A3018 RMK A01 T00451099  RH  034%=      5-min Rain = 0
KGU1 190605Z 31006KT 04/M10 A3018 RMK A01 T00441099  RH  034%=      5-min Rain = 0
KGU1 190606Z 32006KT 04/M10 A3019 RMK A01 T00431099  RH  035%=      5-min Rain = 0
KGU1 190607Z 30006KT 04/M10 A3019 RMK A01 T00431099  RH  035%=      5-min Rain = 0
KGU1 190608Z 30006KT 04/M10 A3019 RMK A01 T00411099  RH  035%=      5-min Rain = 0
KGU1 190609Z 31007KT 04/M10 A3019 RMK A01 T00401099  RH  036%=      5-min Rain = 0
KGU1 190610Z 31008KT 04/M10 A3019 RMK A01 T00391098  RH  036%=      5-min Rain = 0
KGU1 190611Z 30010KT 04/M10 A3019 RMK A01 T00381098  RH  036%=      5-min Rain = 0
KGU1 190612Z 30010KT 04/M10 A3019 RMK A01 T00401098  RH  036%=      5-min Rain = 0
KGU1 190613Z 30009KT 04/M10 A3019 RMK A01 T00431098  RH  035%=      5-min Rain = 0
KGU1 190614Z 32007KT 04/M10 A302 RMK A01 T00441099  RH  034%=      5-min Rain = 0
KGU1 190615Z 34007KT 04/M10 A302 RMK A01 T00441100  RH  034%=      5-min Rain = 0
KGU1 190616Z 32006KT 05/M10 A302 RMK A01 T00451100  RH  034%=      5-min Rain = 0
KGU1 190617Z 34006KT 04/M10 A302 RMK A01 T00441100  RH  034%=      5-min Rain = 0
KGU1 190618Z 32005KT 04/M10 A302 RMK A01 T00421099  RH  035%=      5-min Rain = 0
KGU1 190619Z 29005KT 04/M10 A302 RMK A01 T00401099  RH  035%=      5-min Rain = 0
KGU1 190620Z 31006KT 04/M10 A302 RMK A01 T00421100  RH  035%=      5-min Rain = 0
KGU1 190621Z 32007KT 04/M10 A302 RMK A01 T00421099  RH  035%=      5-min Rain = 0
KGU1 190622Z 33008KT 04/M10 A302 RMK A01 T00381099  RH  036%=      5-min Rain = 0
KGU1 190623Z 34007KT 04/M10 A302 RMK A01 T00361098  RH  037%=      5-min Rain = 0
KGU1 190624Z 34006KT 04/M10 A302 RMK A01 T00371098  RH  036%=      5-min Rain = 0
KGU1 190625Z 32005KT 04/M10 A302 RMK A01 T00401099  RH  036%=      5-min Rain = 0
KGU1 190626Z 35006KT 04/M10 A302 RMK A01 T00391099  RH  036%=      5-min Rain = 0
KGU1 190627Z 34006KT 04/M10 A302 RMK A01 T00401099  RH  035%=      5-min Rain = 0
KGU1 190628Z 33006KT 04/M10 A302 RMK A01 T00401099  RH  035%=      5-min Rain = 0
KGU1 190629Z 34008KT 04/M10 A302 RMK A01 T00391098  RH  036%=      5-min Rain = 0
KGU1 190630Z 33007KT 04/M10 A302 RMK A01 T00401099  RH  035%=      5-min Rain = 0
KGU1 190631Z 32008KT 04/M10 A3021 RMK A01 T00411098  RH  035%=      5-min Rain = 0
KGU1 190632Z 32008KT 04/M10 A3021 RMK A01 T00421098  RH  035%=      5-min Rain = 0
KGU1 190633Z 33009KT 04/M10 A3021 RMK A01 T00421098  RH  035%=      5-min Rain = 0
KGU1 190634Z 35006KT 04/M10 A3021 RMK A01 T00431099  RH  035%=      5-min Rain = 0
KGU1 190635Z 34008G16KT 04/M10 A3021 RMK A01 T00431098  RH  035%=      5-min Rain = 0
KGU1 190636Z 33014KT 04/M10 A3021 RMK A01 T00441099  RH  034%=      5-min Rain = 0
KGU1 190637Z 33011KT 05/M10 A3021 RMK A01 T00471100  RH  033%=      5-min Rain = 0
KGU1 190638Z 32008KT 05/M10 A3021 RMK A01 T00481099  RH  033%=      5-min Rain = 0
KGU1 190639Z 33009KT 05/M10 A3021 RMK A01 T00471099  RH  034%=      5-min Rain = 0
KGU1 190640Z 34010KT 05/M10 A3021 RMK A01 T00451099  RH  034%=      5-min Rain = 0
KGU1 190641Z 33014KT 05/M10 A3021 RMK A01 T00451098  RH  034%=      5-min Rain = 0
KGU1 190642Z 33014KT 05/M10 A3021 RMK A01 T00471098  RH  034%=      5-min Rain = 0
KGU1 190643Z 33013KT 05/M10 A3021 RMK A01 T00481099  RH  033%=      5-min Rain = 0
KGU1 190644Z 34012KT 05/M10 A3021 RMK A01 T00491099  RH  033%=      5-min Rain = 0
KGU1 190645Z 34011KT 05/M10 A3021 RMK A01 T00481098  RH  034%=      5-min Rain = 0
KGU1 190646Z 31017G26KT 05/M10 A3021 RMK A01 T00461098  RH  034%=      5-min Rain = 0
KGU1 190647Z 34011G18KT 05/M10 A3021 RMK A01 T00461097  RH  035%=      5-min Rain = 0
KGU1 190648Z 34011KT 05/M10 A3021 RMK A01 T00451097  RH  035%=      5-min Rain = 0
KGU1 190649Z 33013KT 05/M10 A3021 RMK A01 T00451097  RH  035%=      5-min Rain = 0
KGU1 190650Z 33018G24KT 05/M10 A3021 RMK A01 T00451097  RH  035%=      5-min Rain = 0
KGU1 190651Z 00015KT 05/M10 A3021 RMK A01 T00471096  RH  035%=      5-min Rain = 0
KGU1 190652Z 35019KT 05/M10 A3021 RMK A01 T00471096  RH  035%=      5-min Rain = 0
KGU1 190653Z 35016KT 05/M10 A3021 RMK A01 T00481097  RH  034%=      5-min Rain = 0
KGU1 190654Z 33016KT 05/M10 A3021 RMK A01 T00481097  RH  034%=      5-min Rain = 0
KGU1 190655Z 34016G21KT 05/M10 A3021 RMK A01 T00481096  RH  034%=      5-min Rain = 0
KGU1 190656Z 33019KT 05/M10 A3021 RMK A01 T00481096  RH  035%=      5-min Rain = 0
KGU1 190657Z 35015KT 05/M10 A3021 RMK A01 T00471095  RH  035%=      5-min Rain = 0
KGU1 190658Z 36013KT 05/M10 A3021 RMK A01 T00471095  RH  035%=      5-min Rain = 0
KGU1 190659Z 01016G21KT 05/M10 A3021 RMK A01 T00471095  RH  035%=      5-min Rain = 0
KGU1 190700Z 01018G23KT 05/M09 A3021 RMK A01 T00461093  RH  035%=      5-min Rain = 0
KGU1 190701Z 01018G23KT 05/M09 A3021 RMK A01 T00461093  RH  036%=      5-min Rain = 0
KGU1 190702Z 35016G21KT 05/M09 A3021 RMK A01 T00461094  RH  035%=      5-min Rain = 0
KGU1 190703Z 36017G22KT 05/M09 A3022 RMK A01 T00461093  RH  035%=      5-min Rain = 0
KGU1 190704Z 34018G24KT 05/M09 A3022 RMK A01 T00461093  RH  036%=      5-min Rain = 0
KGU1 190705Z 35019G25KT 05/M09 A3021 RMK A01 T00451092  RH  036%=      5-min Rain = 0
KGU1 190706Z 35016G21KT 05/M09 A3021 RMK A01 T00451091  RH  036%=      5-min Rain = 0
KGU1 190707Z 36022G29KT 04/M09 A3022 RMK A01 T00441091  RH  037%=      5-min Rain = 0
KGU1 190708Z 35017KT 05/M09 A3021 RMK A01 T00451091  RH  036%=      5-min Rain = 0
KGU1 190709Z 34019KT 05/M09 A3021 RMK A01 T00451091  RH  036%=      5-min Rain = 0
KGU1 190710Z 35017G22KT 05/M09 A3021 RMK A01 T00451091  RH  036%=      5-min Rain = 0
KGU1 190711Z 33025G33KT 04/M09 A3022 RMK A01 T00441090  RH  037%=      5-min Rain = 0
KGU1 190712Z 34025G30KT 04/M09 A3021 RMK A01 T00441088  RH  037%=      5-min Rain = 0
KGU1 190713Z 34022G28KT 05/M09 A3022 RMK A01 T00451088  RH  037%=      5-min Rain = 0
KGU1 190714Z 34018G24KT 04/M09 A3021 RMK A01 T00441089  RH  037%=      5-min Rain = 0
KGU1 190715Z 33020G28KT 04/M09 A3021 RMK A01 T00431089  RH  038%=      5-min Rain = 0
KGU1 190716Z 33024G35KT 04/M09 A3021 RMK A01 T00431089  RH  038%=      5-min Rain = 0
KGU1 190717Z 34018KT 04/M09 A3021 RMK A01 T00431088  RH  038%=      5-min Rain = 0
KGU1 190718Z 33020KT 04/M09 A3021 RMK A01 T00421088  RH  038%=      5-min Rain = 0
KGU1 190719Z 34023G31KT 04/M09 A3021 RMK A01 T00421088  RH  038%=      5-min Rain = 0
KGU1 190720Z 34025G30KT 04/M09 A3021 RMK A01 T00431087  RH  038%=      5-min Rain = 0
KGU1 190721Z 34030G35KT 04/M09 A3021 RMK A01 T00431086  RH  038%=      5-min Rain = 0
KGU1 190722Z 34026KT 04/M09 A3021 RMK A01 T00441086  RH  038%=      5-min Rain = 0
KGU1 190723Z 33023G35KT 04/M09 A3021 RMK A01 T00441087  RH  038%=      5-min Rain = 0
KGU1 190724Z 33026G31KT 04/M09 A3022 RMK A01 T00431087  RH  038%=      5-min Rain = 0
KGU1 190725Z 34019KT 04/M09 A3022 RMK A01 T00421088  RH  038%=      5-min Rain = 0
KGU1 190726Z 34022KT 04/M09 A3021 RMK A01 T00421088  RH  038%=      5-min Rain = 0
KGU1 190727Z 34022G27KT 04/M09 A3021 RMK A01 T00411087  RH  038%=      5-min Rain = 0
KGU1 190728Z 33020G26KT 04/M09 A3021 RMK A01 T00411087  RH  038%=      5-min Rain = 0
KGU1 190729Z 33022G30KT 04/M09 A3021 RMK A01 T00411087  RH  039%=      5-min Rain = 0
KGU1 190730Z 33025KT 04/M09 A3021 RMK A01 T00411085  RH  039%=      5-min Rain = 0
KGU1 190731Z 32024G32KT 04/M09 A302 RMK A01 T00411085  RH  039%=      5-min Rain = 0
KGU1 190732Z 34028KT 04/M09 A3021 RMK A01 T00411086  RH  039%=      5-min Rain = 0
KGU1 190733Z 34021G26KT 04/M09 A302 RMK A01 T00411085  RH  039%=      5-min Rain = 0
KGU1 190734Z 34023G29KT 04/M09 A3021 RMK A01 T00401086  RH  039%=      5-min Rain = 0
KGU1 190735Z 33021KT 04/M08 A302 RMK A01 T00401084  RH  040%=      5-min Rain = 0
KGU1 190736Z 34021G26KT 04/M08 A302 RMK A01 T00401084  RH  040%=      5-min Rain = 0
KGU1 190737Z 34024G32KT 04/M09 A3021 RMK A01 T00401085  RH  040%=      5-min Rain = 0
KGU1 190738Z 34023G29KT 04/M08 A302 RMK A01 T00401083  RH  040%=      5-min Rain = 0
KGU1 190739Z 33026G33KT 04/M08 A302 RMK A01 T00401082  RH  041%=      5-min Rain = 0
KGU1 190740Z 34027KT 04/M08 A3021 RMK A01 T00401082  RH  040%=      5-min Rain = 0
KGU1 190741Z 33020G29KT 04/M08 A302 RMK A01 T00401081  RH  041%=      5-min Rain = 0
KGU1 190742Z 34028G33KT 04/M08 A3021 RMK A01 T00401080  RH  041%=      5-min Rain = 0
KGU1 190743Z 34024G30KT 04/M08 A302 RMK A01 T00411079  RH  041%=      5-min Rain = 0
KGU1 190744Z 33025G30KT 04/M08 A302 RMK A01 T00411077  RH  042%=      5-min Rain = 0
KGU1 190745Z 34029G36KT 04/M08 A302 RMK A01 T00411077  RH  042%=      5-min Rain = 0
KGU1 190746Z 33028G34KT 04/M08 A3021 RMK A01 T00411077  RH  042%=      5-min Rain = 0
KGU1 190747Z 33025G31KT 04/M08 A302 RMK A01 T00411077  RH  042%=      5-min Rain = 0
KGU1 190748Z 33031G36KT 04/M08 A3021 RMK A01 T00411076  RH  042%=      5-min Rain = 0
KGU1 190749Z 33025G31KT 04/M08 A3021 RMK A01 T00411077  RH  042%=      5-min Rain = 0
KGU1 190750Z 33025G30KT 04/M08 A302 RMK A01 T00411075  RH  042%=      5-min Rain = 0
KGU1 190751Z 32028G33KT 04/M07 A302 RMK A01 T00401074  RH  043%=      5-min Rain = 0
KGU1 190752Z 33023G30KT 04/M08 A3021 RMK A01 T00401075  RH  043%=      5-min Rain = 0
KGU1 190753Z 34029G37KT 04/M07 A3021 RMK A01 T00401074  RH  043%=      5-min Rain = 0
KGU1 190754Z 34025G31KT 04/M07 A3021 RMK A01 T00411074  RH  043%=      5-min Rain = 0
KGU1 190755Z 34025G31KT 04/M08 A3021 RMK A01 T00401075  RH  043%=      5-min Rain = 0
KGU1 190756Z 34022G31KT 04/M07 A3021 RMK A01 T00401074  RH  043%=      5-min Rain = 0
KGU1 190757Z 34028G34KT 04/M07 A3021 RMK A01 T00391074  RH  044%=      5-min Rain = 0
KGU1 190758Z 34025G36KT 04/M07 A3021 RMK A01 T00401073  RH  044%=      5-min Rain = 0
KGU1 190759Z 33027G32KT 04/M07 A3021 RMK A01 T00401073  RH  044%=      5-min Rain = 0
KGU1 190800Z 34026KT 04/M07 A3021 RMK A01 T00401071  RH  044%=      5-min Rain = 0
KGU1 190801Z 34025G33KT 04/M07 A3021 RMK A01 T00401072  RH  044%=      5-min Rain = 0
KGU1 190802Z 33026G31KT 04/M07 A3021 RMK A01 T00391070  RH  045%=      5-min Rain = 0
KGU1 190803Z 33023G29KT 04/M07 A3021 RMK A01 T00401070  RH  045%=      5-min Rain = 0
KGU1 190804Z 34026G33KT 04/M07 A3021 RMK A01 T00401070  RH  045%=      5-min Rain = 0
KGU1 190805Z 34026G34KT 04/M07 A3021 RMK A01 T00391070  RH  045%=      5-min Rain = 0
KGU1 190806Z 34025G31KT 04/M07 A3021 RMK A01 T00391070  RH  045%=      5-min Rain = 0
KGU1 190807Z 33025KT 04/M07 A3021 RMK A01 T00391070  RH  045%=      5-min Rain = 0
KGU1 190808Z 34021G27KT 04/M07 A3021 RMK A01 T00391070  RH  045%=      5-min Rain = 0
KGU1 190809Z 34026G32KT 04/M07 A3021 RMK A01 T00391069  RH  045%=      5-min Rain = 0
KGU1 190810Z 34028G36KT 04/M07 A3021 RMK A01 T00401068  RH  045%=      5-min Rain = 0
KGU1 190811Z 33022G28KT 04/M07 A3021 RMK A01 T00391068  RH  045%=      5-min Rain = 0
KGU1 190812Z 34026G32KT 04/M07 A3021 RMK A01 T00391068  RH  046%=      5-min Rain = 0
KGU1 190813Z 34024G29KT 04/M07 A3021 RMK A01 T00391067  RH  046%=      5-min Rain = 0
KGU1 190814Z 33027G34KT 04/M07 A3021 RMK A01 T00391066  RH  046%=      5-min Rain = 0
KGU1 190815Z 33025KT 04/M07 A3021 RMK A01 T00391065  RH  047%=      5-min Rain = 0
KGU1 190816Z 33023G30KT 04/M07 A3021 RMK A01 T00381065  RH  047%=      5-min Rain = 0
KGU1 190817Z 34026G31KT 04/M07 A3021 RMK A01 T00371065  RH  047%=      5-min Rain = 0
KGU1 190818Z 33027G33KT 04/M07 A3021 RMK A01 T00381065  RH  047%=      5-min Rain = 0
KGU1 190819Z 33025G30KT 04/M06 A3021 RMK A01 T00381064  RH  047%=      5-min Rain = 0
KGU1 190820Z 34024G32KT 04/M06 A3021 RMK A01 T00381064  RH  047%=      5-min Rain = 0
KGU1 190821Z 34022G28KT 04/M07 A3021 RMK A01 T00391065  RH  047%=      5-min Rain = 0
KGU1 190822Z 33022G27KT 04/M07 A3021 RMK A01 T00391065  RH  047%=      5-min Rain = 0
KGU1 190823Z 34025G32KT 04/M06 A3021 RMK A01 T00391064  RH  047%=      5-min Rain = 0
KGU1 190824Z 34025G31KT 04/M06 A3022 RMK A01 T00381063  RH  048%=      5-min Rain = 0
KGU1 190825Z 33022G28KT 04/M06 A3021 RMK A01 T00381063  RH  048%=      5-min Rain = 0
KGU1 190826Z 34025G31KT 04/M06 A3021 RMK A01 T00371062  RH  048%=      5-min Rain = 0
KGU1 190827Z 33022KT 04/M06 A3021 RMK A01 T00371060  RH  049%=      5-min Rain = 0
KGU1 190828Z 33025G31KT 04/M06 A3022 RMK A01 T00371060  RH  049%=      5-min Rain = 0
KGU1 190829Z 33024G31KT 04/M06 A3022 RMK A01 T00371060  RH  049%=      5-min Rain = 0
KGU1 190830Z 32021G27KT 04/M06 A3022 RMK A01 T00381061  RH  048%=      5-min Rain = 0
KGU1 190831Z 33024KT 04/M06 A3022 RMK A01 T00381060  RH  049%=      5-min Rain = 0
KGU1 190832Z 33021G27KT 04/M06 A3022 RMK A01 T00381059  RH  049%=      5-min Rain = 0
KGU1 190833Z 33018KT 04/M06 A3023 RMK A01 T00381059  RH  049%=      5-min Rain = 0
KGU1 190834Z 33018G23KT 04/M06 A3023 RMK A01 T00381060  RH  049%=      5-min Rain = 0
KGU1 190835Z 32012G17KT 04/M06 A3023 RMK A01 T00381060  RH  049%=      5-min Rain = 0
KGU1 190836Z 31012G19KT 04/M06 A3023 RMK A01 T00371061  RH  049%=      5-min Rain = 0
KGU1 190837Z 35010G16KT 04/M06 A3023 RMK A01 T00371060  RH  049%=      5-min Rain = 0
KGU1 190838Z 31008G13KT 04/M06 A3024 RMK A01 T00371059  RH  049%=      5-min Rain = 0
KGU1 190839Z 28007G14KT 04/M06 A3024 RMK A01 T00361061  RH  049%=      5-min Rain = 0
KGU1 190840Z 20004KT 04/M06 A3024 RMK A01 T00371062  RH  048%=      5-min Rain = 0
KGU1 190841Z 13007KT 04/M07 A3024 RMK A01 T00371066  RH  047%=      5-min Rain = 0
KGU1 190842Z 18012G18KT 04/M07 A3024 RMK A01 T00371065  RH  047%=      5-min Rain = 0
KGU1 190843Z 18008KT 04/M06 A3025 RMK A01 T00381064  RH  048%=      5-min Rain = 0
KGU1 190844Z 24007KT 04/M06 A3025 RMK A01 T00381064  RH  047%=      5-min Rain = 0
KGU1 190845Z 18006KT 04/M06 A3025 RMK A01 T00371063  RH  048%=      5-min Rain = 0
KGU1 190846Z 13006KT 04/M07 A3025 RMK A01 T00361066  RH  047%=      5-min Rain = 0
KGU1 190847Z 15008KT 03/M07 A3025 RMK A01 T00341067  RH  048%=      5-min Rain = 0
KGU1 190848Z 15004KT 03/M07 A3025 RMK A01 T00331067  RH  048%=      5-min Rain = 0
KGU1 190849Z 22003KT 03/M07 A3025 RMK A01 T00311068  RH  048%=      5-min Rain = 0
KGU1 190850Z 18004KT 03/M07 A3026 RMK A01 T00301068  RH  049%=      5-min Rain = 0
KGU1 190851Z 12004KT 03/M07 A3025 RMK A01 T00301067  RH  049%=      5-min Rain = 0
KGU1 190852Z 13004KT 03/M07 A3025 RMK A01 T00301066  RH  049%=      5-min Rain = 0
KGU1 190853Z 14005KT 03/M07 A3025 RMK A01 T00301066  RH  049%=      5-min Rain = 0
KGU1 190854Z 13005KT 03/M07 A3025 RMK A01 T00281066  RH  050%=      5-min Rain = 0
KGU1 190855Z 11004KT 03/M06 A3025 RMK A01 T00281064  RH  051%=      5-min Rain = 0
KGU1 190856Z 14004KT 03/M06 A3025 RMK A01 T00281064  RH  051%=      5-min Rain = 0
KGU1 190857Z 15004KT 03/M07 A3025 RMK A01 T00271065  RH  051%=      5-min Rain = 0
KGU1 190858Z 16004KT 03/M07 A3025 RMK A01 T00261065  RH  051%=      5-min Rain = 0
KGU1 190859Z 15004KT 03/M07 A3025 RMK A01 T00251065  RH  051%=      5-min Rain = 0
KGU1 190900Z 14003KT 03/M07 A3025 RMK A01 T00251065  RH  052%=      5-min Rain = 0
KGU1 190901Z 19002KT 03/M07 A3025 RMK A01 T00251065  RH  052%=      5-min Rain = 0
KGU1 190902Z 18002KT 02/M07 A3025 RMK A01 T00241065  RH  052%=      5-min Rain = 0
KGU1 190903Z 14002KT 02/M07 A3025 RMK A01 T00241065  RH  052%=      5-min Rain = 0
KGU1 190904Z 16003KT 03/M06 A3026 RMK A01 T00251064  RH  052%=      5-min Rain = 0
KGU1 190905Z 14002KT 03/M06 A3026 RMK A01 T00271063  RH  051%=      5-min Rain = 0
KGU1 190906Z 15001KT 03/M06 A3026 RMK A01 T00281064  RH  051%=      5-min Rain = 0
KGU1 190907Z 33002KT 03/M07 A3026 RMK A01 T00271065  RH  051%=      5-min Rain = 0
KGU1 190908Z 33002KT 03/M07 A3026 RMK A01 T00251065  RH  051%=      5-min Rain = 0
KGU1 190909Z 32003KT 03/M06 A3026 RMK A01 T00261064  RH  052%=      5-min Rain = 0
KGU1 190910Z 32005KT 03/M06 A3026 RMK A01 T00271062  RH  052%=      5-min Rain = 0
KGU1 190911Z 31005KT 03/M06 A3026 RMK A01 T00281062  RH  052%=      5-min Rain = 0
KGU1 190912Z 19003KT 03/M06 A3026 RMK A01 T00281062  RH  052%=      5-min Rain = 0
KGU1 190913Z 19003KT 03/M06 A3026 RMK A01 T00281063  RH  051%=      5-min Rain = 0
KGU1 190914Z 18001KT 03/M06 A3026 RMK A01 T00281063  RH  051%=      5-min Rain = 0
KGU1 190915Z 13004KT 03/M06 A3027 RMK A01 T00301063  RH  051%=      5-min Rain = 0
KGU1 190916Z 11002KT 03/M06 A3027 RMK A01 T00321062  RH  050%=      5-min Rain = 0
KGU1 190917Z 12001KT 03/M06 A3027 RMK A01 T00341062  RH  050%=      5-min Rain = 0
KGU1 190918Z 10000KT 04/M06 A3027 RMK A01 T00351062  RH  049%=      5-min Rain = 0
KGU1 190919Z 06002KT 04/M06 A3027 RMK A01 T00351062  RH  049%=      5-min Rain = 0
KGU1 190920Z 05004KT 04/M06 A3027 RMK A01 T00351062  RH  049%=      5-min Rain = 0
KGU1 190921Z 02003KT 03/M06 A3027 RMK A01 T00341062  RH  050%=      5-min Rain = 0
KGU1 190922Z 02002KT 03/M06 A3028 RMK A01 T00331062  RH  050%=      5-min Rain = 0
KGU1 190923Z 01001KT 03/M06 A3027 RMK A01 T00321062  RH  050%=      5-min Rain = 0
KGU1 190924Z 00001KT 03/M06 A3028 RMK A01 T00301062  RH  051%=      5-min Rain = 0
KGU1 190925Z 00001KT 03/M06 A3028 RMK A01 T00291062  RH  051%=      5-min Rain = 0
KGU1 190926Z 00002KT 03/M06 A3028 RMK A01 T00281062  RH  051%=      5-min Rain = 0
KGU1 190927Z 01003KT 03/M06 A3028 RMK A01 T00281062  RH  052%=      5-min Rain = 0
KGU1 190928Z 02002KT 03/M06 A3028 RMK A01 T00261062  RH  052%=      5-min Rain = 0
KGU1 190929Z 02002KT 03/M06 A3028 RMK A01 T00251062  RH  053%=      5-min Rain = 0
KGU1 190930Z 03002KT 03/M06 A3028 RMK A01 T00251061  RH  053%=      5-min Rain = 0
KGU1 190931Z 02002KT 03/M06 A3028 RMK A01 T00251061  RH  053%=      5-min Rain = 0
KGU1 190932Z 03002KT 02/M06 A3028 RMK A01 T00231062  RH  054%=      5-min Rain = 0
KGU1 190933Z 07002KT 02/M06 A3028 RMK A01 T00221061  RH  054%=      5-min Rain = 0
KGU1 190934Z 09001KT 02/M06 A3028 RMK A01 T00221060  RH  054%=      5-min Rain = 0
KGU1 190935Z 10002KT 02/M06 A3028 RMK A01 T00221060  RH  054%=      5-min Rain = 0
KGU1 190936Z 10002KT 02/M06 A3028 RMK A01 T00221060  RH  055%=      5-min Rain = 0
KGU1 190937Z 11001KT 02/M06 A3028 RMK A01 T00221061  RH  055%=      5-min Rain = 0
KGU1 190938Z 11000KT 02/M06 A3028 RMK A01 T00211061  RH  055%=      5-min Rain = 0
KGU1 190939Z 09000KT 02/M06 A3028 RMK A01 T00221060  RH  055%=      5-min Rain = 0
KGU1 190940Z 05001KT 02/M06 A3028 RMK A01 T00221060  RH  055%=      5-min Rain = 0
KGU1 190941Z 04000KT 02/M06 A3028 RMK A01 T00221060  RH  055%=      5-min Rain = 0
KGU1 190942Z 32001KT 02/M06 A3028 RMK A01 T00231060  RH  055%=      5-min Rain = 0
KGU1 190943Z 32003KT 02/M06 A3028 RMK A01 T00221061  RH  054%=      5-min Rain = 0
KGU1 190944Z 33002KT 02/M06 A3028 RMK A01 T00171063  RH  055%=      5-min Rain = 0
KGU1 190945Z 34001KT 01/M06 A3028 RMK A01 T00131063  RH  057%=      5-min Rain = 0
KGU1 190946Z 34002KT 01/M06 A3028 RMK A01 T00131061  RH  058%=      5-min Rain = 0
KGU1 190947Z 34002KT 01/M06 A3028 RMK A01 T00131061  RH  058%=      5-min Rain = 0
KGU1 190948Z 01003KT 01/M06 A3028 RMK A01 T00121062  RH  058%=      5-min Rain = 0
KGU1 190949Z 01003KT 01/M06 A3028 RMK A01 T00131061  RH  058%=      5-min Rain = 0
KGU1 190950Z 01003KT 01/M06 A3028 RMK A01 T00141060  RH  058%=      5-min Rain = 0
KGU1 190951Z 36003KT 02/M06 A3028 RMK A01 T00151060  RH  057%=      5-min Rain = 0
KGU1 190952Z 01003KT 02/M06 A3028 RMK A01 T00151060  RH  057%=      5-min Rain = 0
KGU1 190953Z 01003KT 01/M06 A3028 RMK A01 T00141060  RH  058%=      5-min Rain = 0
KGU1 190954Z 01003KT 02/M06 A3028 RMK A01 T00151060  RH  058%=      5-min Rain = 0
KGU1 190955Z 01003KT 02/M06 A3028 RMK A01 T00161059  RH  057%=      5-min Rain = 0
KGU1 190956Z 02004KT 02/M06 A3028 RMK A01 T00161059  RH  057%=      5-min Rain = 0
KGU1 190957Z 02003KT 02/M06 A3028 RMK A01 T00171059  RH  057%=      5-min Rain = 0
KGU1 190958Z 02004KT 02/M06 A3028 RMK A01 T00171058  RH  057%=      5-min Rain = 0
KGU1 190959Z 02006KT 02/M06 A3028 RMK A01 T00181058  RH  057%=      5-min Rain = 0
KGU1 191000Z 02005KT 02/M06 A3028 RMK A01 T00181058  RH  057%=      5-min Rain = 0
KGU1 191001Z 03005KT 02/M06 A3028 RMK A01 T00181058  RH  057%=      5-min Rain = 0
KGU1 191002Z 04004KT 02/M06 A3028 RMK A01 T00171058  RH  057%=      5-min Rain = 0
KGU1 191003Z 04004KT 02/M06 A3028 RMK A01 T00171058  RH  058%=      5-min Rain = 0
KGU1 191004Z 03004KT 02/M06 A3028 RMK A01 T00151058  RH  058%=      5-min Rain = 0
KGU1 191005Z 03003KT 01/M06 A3028 RMK A01 T00141059  RH  058%=      5-min Rain = 0
KGU1 191006Z 02004KT 01/M06 A3028 RMK A01 T00131059  RH  059%=      5-min Rain = 0
KGU1 191007Z 02004KT 01/M06 A3028 RMK A01 T00131058  RH  059%=      5-min Rain = 0
KGU1 191008Z 02004KT 01/M06 A3028 RMK A01 T00131059  RH  059%=      5-min Rain = 0
KGU1 191009Z 03004KT 01/M06 A3028 RMK A01 T00121059  RH  060%=      5-min Rain = 0
KGU1 191010Z 02005KT 01/M06 A3028 RMK A01 T00121058  RH  060%=      5-min Rain = 0
KGU1 191011Z 03005KT 01/M06 A3028 RMK A01 T00131057  RH  060%=      5-min Rain = 0
KGU1 191012Z 04005KT 01/M06 A3028 RMK A01 T00141057  RH  059%=      5-min Rain = 0
KGU1 191013Z 04005KT 01/M06 A3028 RMK A01 T00131058  RH  059%=      5-min Rain = 0
KGU1 191014Z 07005KT 01/M06 A3028 RMK A01 T00121058  RH  059%=      5-min Rain = 0
KGU1 191015Z 06005KT 01/M06 A3028 RMK A01 T00141056  RH  060%=      5-min Rain = 0
KGU1 191016Z 05003KT 02/M05 A3028 RMK A01 T00181054  RH  059%=      5-min Rain = 0
KGU1 191017Z 05003KT 02/M06 A3028 RMK A01 T00201055  RH  058%=      5-min Rain = 0
KGU1 191018Z 02003KT 02/M06 A3028 RMK A01 T00191057  RH  057%=      5-min Rain = 0
KGU1 191019Z 36002KT 02/M06 A3028 RMK A01 T00161058  RH  058%=      5-min Rain = 0
KGU1 191020Z 01003KT 01/M06 A3028 RMK A01 T00141058  RH  059%=      5-min Rain = 0
KGU1 191021Z 03003KT 01/M06 A3028 RMK A01 T00131058  RH  059%=      5-min Rain = 0
KGU1 191022Z 04002KT 01/M06 A3028 RMK A01 T00121058  RH  060%=      5-min Rain = 0
KGU1 191023Z 03002KT 01/M06 A3028 RMK A01 T00121058  RH  060%=      5-min Rain = 0
KGU1 191024Z 03003KT 01/M06 A3028 RMK A01 T00121057  RH  060%=      5-min Rain = 0
KGU1 191025Z 33002KT 01/M06 A3029 RMK A01 T00131058  RH  059%=      5-min Rain = 0
KGU1 191026Z 31002KT 01/M06 A3028 RMK A01 T00111059  RH  059%=      5-min Rain = 0
KGU1 191027Z 32003KT 01/M06 A3028 RMK A01 T00101060  RH  060%=      5-min Rain = 0
KGU1 191028Z 33004KT 01/M06 A3028 RMK A01 T00091060  RH  060%=      5-min Rain = 0
KGU1 191029Z 35003KT 01/M06 A3028 RMK A01 T00091059  RH  060%=      5-min Rain = 0
KGU1 191030Z 35003KT 01/M06 A3028 RMK A01 T00081059  RH  061%=      5-min Rain = 0
KGU1 191031Z 01002KT 01/M06 A3028 RMK A01 T00101058  RH  061%=      5-min Rain = 0
KGU1 191032Z 01003KT 01/M06 A3028 RMK A01 T00121057  RH  060%=      5-min Rain = 0
KGU1 191033Z 01003KT 02/M06 A3028 RMK A01 T00151057  RH  059%=      5-min Rain = 0
KGU1 191034Z 01003KT 02/M06 A3028 RMK A01 T00161057  RH  058%=      5-min Rain = 0
KGU1 191035Z 35003KT 02/M06 A3028 RMK A01 T00161058  RH  058%=      5-min Rain = 0
KGU1 191036Z 35003KT 02/M06 A3028 RMK A01 T00171058  RH  058%=      5-min Rain = 0
KGU1 191037Z 33003KT 02/M06 A3028 RMK A01 T00151059  RH  058%=      5-min Rain = 0
KGU1 191038Z 33003KT 01/M06 A3028 RMK A01 T00121060  RH  059%=      5-min Rain = 0
KGU1 191039Z 34002KT 01/M06 A3028 RMK A01 T00111059  RH  059%=      5-min Rain = 0
KGU1 191040Z 33003KT 01/M06 A3028 RMK A01 T00121059  RH  059%=      5-min Rain = 0
KGU1 191041Z 32004KT 01/M06 A3028 RMK A01 T00121060  RH  059%=      5-min Rain = 0
KGU1 191042Z 35003KT 01/M06 A3028 RMK A01 T00101061  RH  059%=      5-min Rain = 0
KGU1 191043Z 34003KT 01/M06 A3028 RMK A01 T00111059  RH  060%=      5-min Rain = 0
KGU1 191044Z 33004KT 01/M06 A3028 RMK A01 T00121060  RH  059%=      5-min Rain = 0
KGU1 191045Z 33006KT 01/M06 A3028 RMK A01 T00111061  RH  059%=      5-min Rain = 0
KGU1 191046Z 34005KT 01/M06 A3028 RMK A01 T00101060  RH  059%=      5-min Rain = 0
KGU1 191047Z 34005KT 01/M06 A3028 RMK A01 T00101060  RH  060%=      5-min Rain = 0
KGU1 191048Z 35005KT 01/M06 A3028 RMK A01 T00101060  RH  060%=      5-min Rain = 0
KGU1 191049Z 34005KT 01/M06 A3028 RMK A01 T00081062  RH  060%=      5-min Rain = 0
KGU1 191050Z 35005KT 01/M06 A3028 RMK A01 T00061062  RH  060%=      5-min Rain = 0
KGU1 191051Z 35005KT 01/M06 A3028 RMK A01 T00051062  RH  061%=      5-min Rain = 0
KGU1 191052Z 36006KT 00/M06 A3028 RMK A01 T00041061  RH  061%=      5-min Rain = 0
KGU1 191053Z 35006KT 00/M06 A3028 RMK A01 T00041062  RH  062%=      5-min Rain = 0
KGU1 191054Z 35006KT 00/M06 A3028 RMK A01 T00031062  RH  062%=      5-min Rain = 0
KGU1 191055Z 00006KT 01/M06 A3028 RMK A01 T00051061  RH  062%=      5-min Rain = 0
KGU1 191056Z 01005KT 01/M06 A3028 RMK A01 T00081060  RH  061%=      5-min Rain = 0
KGU1 191057Z 00005KT 01/M06 A3028 RMK A01 T00091060  RH  060%=      5-min Rain = 0
KGU1 191058Z 01005KT 01/M06 A3028 RMK A01 T00111061  RH  059%=      5-min Rain = 0
KGU1 191059Z 01005KT 01/M06 A3028 RMK A01 T00111061  RH  059%=      5-min Rain = 0
KGU1 191100Z 00005KT 01/M06 A3028 RMK A01 T00121061  RH  059%=      5-min Rain = 0
KGU1 191101Z 35004KT 01/M06 A3028 RMK A01 T00111061  RH  058%=      5-min Rain = 0
KGU1 191102Z 35006KT 01/M06 A3028 RMK A01 T00091062  RH  059%=      5-min Rain = 0
KGU1 191103Z 35006KT 01/M06 A3028 RMK A01 T00101063  RH  058%=      5-min Rain = 0
KGU1 191104Z 01009KT 01/M06 A3028 RMK A01 T00121064  RH  057%=      5-min Rain = 0
KGU1 191105Z 01010KT 02/M06 A3028 RMK A01 T00161064  RH  055%=      5-min Rain = 0
KGU1 191106Z 01009KT 02/M07 A3028 RMK A01 T00191065  RH  054%=      5-min Rain = 0
KGU1 191107Z 02006KT 02/M07 A3028 RMK A01 T00211066  RH  053%=      5-min Rain = 0
KGU1 191108Z 02005KT 02/M07 A3028 RMK A01 T00211066  RH  053%=      5-min Rain = 0
KGU1 191109Z 36006KT 02/M07 A3028 RMK A01 T00211066  RH  053%=      5-min Rain = 0
KGU1 191110Z 03004KT 02/M07 A3028 RMK A01 T00201067  RH  053%=      5-min Rain = 0
KGU1 191111Z 02005KT 02/M07 A3028 RMK A01 T00201067  RH  053%=      5-min Rain = 0
KGU1 191112Z 03004KT 02/M07 A3028 RMK A01 T00191068  RH  053%=      5-min Rain = 0
KGU1 191113Z 02006KT 02/M07 A3028 RMK A01 T00181068  RH  053%=      5-min Rain = 0
KGU1 191114Z 05005KT 02/M07 A3028 RMK A01 T00171068  RH  053%=      5-min Rain = 0
KGU1 191115Z 04005KT 02/M07 A3028 RMK A01 T00171068  RH  053%=      5-min Rain = 0
KGU1 191116Z 02007KT 02/M07 A3028 RMK A01 T00181068  RH  053%=      5-min Rain = 0
KGU1 191117Z 05005KT 02/M07 A3028 RMK A01 T00181068  RH  053%=      5-min Rain = 0
KGU1 191118Z 05004KT 02/M07 A3028 RMK A01 T00191067  RH  053%=      5-min Rain = 0
KGU1 191119Z 03008KT 02/M07 A3028 RMK A01 T00181068  RH  053%=      5-min Rain = 0
KGU1 191120Z 02007KT 02/M07 A3028 RMK A01 T00191070  RH  052%=      5-min Rain = 0
KGU1 191121Z 05005KT 02/M07 A3028 RMK A01 T00201070  RH  051%=      5-min Rain = 0
KGU1 191122Z 03006KT 02/M07 A3028 RMK A01 T00201070  RH  052%=      5-min Rain = 0
KGU1 191123Z 03008KT 02/M07 A3028 RMK A01 T00201071  RH  051%=      5-min Rain = 0
KGU1 191124Z 04007KT 02/M07 A3028 RMK A01 T00221071  RH  050%=      5-min Rain = 0
KGU1 191125Z 06004KT 02/M07 A3028 RMK A01 T00231071  RH  050%=      5-min Rain = 0
KGU1 191126Z 07006KT 02/M07 A3028 RMK A01 T00231071  RH  050%=      5-min Rain = 0
KGU1 191127Z 10007KT 02/M07 A3028 RMK A01 T00211070  RH  051%=      5-min Rain = 0
KGU1 191128Z 10008KT 02/M07 A3028 RMK A01 T00181069  RH  053%=      5-min Rain = 0
KGU1 191129Z 10007KT 01/M07 A3028 RMK A01 T00141068  RH  054%=      5-min Rain = 0
KGU1 191130Z 11008KT 01/M07 A3028 RMK A01 T00131067  RH  055%=      5-min Rain = 0
KGU1 191131Z 13009KT 01/M07 A3028 RMK A01 T00121065  RH  057%=      5-min Rain = 0
KGU1 191132Z 13009KT 01/M06 A3028 RMK A01 T00101063  RH  058%=      5-min Rain = 0
KGU1 191133Z 12007G12KT 01/M06 A3028 RMK A01 T00091063  RH  059%=      5-min Rain = 0
KGU1 191134Z 13007KT 01/M06 A3029 RMK A01 T00091063  RH  059%=      5-min Rain = 0
KGU1 191135Z 13006KT 01/M06 A3029 RMK A01 T00081063  RH  059%=      5-min Rain = 0
KGU1 191136Z 13006KT 01/M06 A3029 RMK A01 T00061063  RH  060%=      5-min Rain = 0
KGU1 191137Z 13004KT 00/M06 A3029 RMK A01 T00041063  RH  060%=      5-min Rain = 0
KGU1 191138Z 14005KT 00/M06 A3029 RMK A01 T00031064  RH  061%=      5-min Rain = 0
KGU1 191139Z 14006KT 00/M06 A3029 RMK A01 T00021064  RH  061%=      5-min Rain = 0
KGU1 191140Z 14007KT 00/M06 A3029 RMK A01 T00021063  RH  062%=      5-min Rain = 0
KGU1 191141Z 14008KT 00/M06 A3029 RMK A01 T00031062  RH  062%=      5-min Rain = 0
KGU1 191142Z 14008KT 00/M06 A3029 RMK A01 T00041062  RH  062%=      5-min Rain = 0
KGU1 191143Z 13009KT 00/M06 A3029 RMK A01 T00041062  RH  061%=      5-min Rain = 0
KGU1 191144Z 14010KT 01/M06 A3029 RMK A01 T00061062  RH  060%=      5-min Rain = 0
KGU1 191145Z 13010KT 01/M06 A3029 RMK A01 T00081062  RH  060%=      5-min Rain = 0
KGU1 191146Z 13009KT 01/M06 A3029 RMK A01 T00081062  RH  060%=      5-min Rain = 0
KGU1 191147Z 13008KT 01/M06 A3029 RMK A01 T00081062  RH  059%=      5-min Rain = 0
KGU1 191148Z 12009KT 01/M06 A3029 RMK A01 T00081063  RH  059%=      5-min Rain = 0
KGU1 191149Z 12010KT 01/M06 A3029 RMK A01 T00081063  RH  059%=      5-min Rain = 0
KGU1 191150Z 12009KT 01/M06 A3029 RMK A01 T00081063  RH  059%=      5-min Rain = 0
KGU1 191151Z 12009KT 01/M06 A3029 RMK A01 T00091063  RH  059%=      5-min Rain = 0
KGU1 191152Z 11008KT 01/M07 A3029 RMK A01 T00081065  RH  058%=      5-min Rain = 0
KGU1 191153Z 10009KT 01/M07 A3029 RMK A01 T00091065  RH  058%=      5-min Rain = 0
KGU1 191154Z 09007KT 01/M07 A3029 RMK A01 T00101067  RH  057%=      5-min Rain = 0
KGU1 191155Z 10008KT 01/M07 A3029 RMK A01 T00111068  RH  056%=      5-min Rain = 0
KGU1 191156Z 10008KT 01/M07 A3029 RMK A01 T00101068  RH  056%=      5-min Rain = 0
KGU1 191157Z 10008KT 01/M07 A3029 RMK A01 T00101066  RH  057%=      5-min Rain = 0
KGU1 191158Z 10008KT 01/M07 A3029 RMK A01 T00091066  RH  057%=      5-min Rain = 0
KGU1 191159Z 10008KT 01/M07 A3029 RMK A01 T00081066  RH  057%=      5-min Rain = 0
KGU1 191200Z 09008KT 01/M07 A3029 RMK A01 T00081067  RH  057%=      5-min Rain = 0
KGU1 191201Z 09008KT 01/M07 A3029 RMK A01 T00081067  RH  057%=      5-min Rain = 0
KGU1 191202Z 10008KT 01/M07 A3029 RMK A01 T00081067  RH  057%=      5-min Rain = 0
KGU1 191203Z 10008KT 01/M07 A3029 RMK A01 T00081068  RH  057%=      5-min Rain = 0
KGU1 191204Z 09007KT 01/M07 A3029 RMK A01 T00081069  RH  056%=      5-min Rain = 0
KGU1 191205Z 08008KT 01/M07 A3029 RMK A01 T00091071  RH  055%=      5-min Rain = 0
KGU1 191206Z 09008KT 01/M07 A3029 RMK A01 T00121072  RH  054%=      5-min Rain = 0
KGU1 191207Z 09008KT 01/M07 A3029 RMK A01 T00121071  RH  054%=      5-min Rain = 0
KGU1 191208Z 09008KT 01/M07 A3029 RMK A01 T00111071  RH  054%=      5-min Rain = 0
KGU1 191209Z 09007KT 01/M07 A3029 RMK A01 T00111071  RH  054%=      5-min Rain = 0
KGU1 191210Z 09006KT 01/M07 A3029 RMK A01 T00101072  RH  054%=      5-min Rain = 0
KGU1 191211Z 09007KT 01/M07 A3029 RMK A01 T00101073  RH  054%=      5-min Rain = 0
KGU1 191212Z 08007KT 01/M07 A3029 RMK A01 T00101073  RH  054%=      5-min Rain = 0
KGU1 191213Z 09007KT 01/M07 A3029 RMK A01 T00111073  RH  054%=      5-min Rain = 0
KGU1 191214Z 09006KT 01/M07 A3029 RMK A01 T00101074  RH  053%=      5-min Rain = 0
KGU1 191215Z 08004KT 01/M07 A3029 RMK A01 T00101074  RH  053%=      5-min Rain = 0
KGU1 191216Z 07002KT 01/M07 A303 RMK A01 T00101074  RH  053%=      5-min Rain = 0
KGU1 191217Z 30002KT 01/M07 A303 RMK A01 T00091074  RH  054%=      5-min Rain = 0
KGU1 191218Z 35002KT 01/M07 A303 RMK A01 T00071073  RH  055%=      5-min Rain = 0
KGU1 191219Z 02001KT 01/M07 A3029 RMK A01 T00051073  RH  056%=      5-min Rain = 0
KGU1 191220Z 03000KT 00/M07 A3029 RMK A01 T00041074  RH  056%=      5-min Rain = 0
KGU1 191221Z 33000KT 00/M07 A3029 RMK A01 T00041074  RH  056%=      5-min Rain = 0
KGU1 191222Z 32001KT 00/M07 A3029 RMK A01 T00041074  RH  056%=      5-min Rain = 0
KGU1 191223Z 32001KT 01/M07 A303 RMK A01 T00051073  RH  056%=      5-min Rain = 0
KGU1 191224Z 34002KT 01/M07 A303 RMK A01 T00061074  RH  055%=      5-min Rain = 0
KGU1 191225Z 34003KT 01/M07 A303 RMK A01 T00061074  RH  055%=      5-min Rain = 0
KGU1 191226Z 34003KT 01/M07 A303 RMK A01 T00071074  RH  054%=      5-min Rain = 0
KGU1 191227Z 01004KT 01/M08 A303 RMK A01 T00061075  RH  055%=      5-min Rain = 0
KGU1 191228Z 03004KT 01/M07 A303 RMK A01 T00061074  RH  055%=      5-min Rain = 0
KGU1 191229Z 03004KT 01/M07 A303 RMK A01 T00081074  RH  054%=      5-min Rain = 0
KGU1 191230Z 01003KT 01/M07 A303 RMK A01 T00101074  RH  053%=      5-min Rain = 0
KGU1 191231Z 36003KT 01/M08 A303 RMK A01 T00111075  RH  053%=      5-min Rain = 0
KGU1 191232Z 02004KT 01/M08 A3031 RMK A01 T00111075  RH  053%=      5-min Rain = 0
KGU1 191233Z 35003KT 01/M08 A3031 RMK A01 T00101075  RH  053%=      5-min Rain = 0
KGU1 191234Z 34003KT 01/M08 A3031 RMK A01 T00091075  RH  053%=      5-min Rain = 0
KGU1 191235Z 35003KT 01/M08 A3031 RMK A01 T00081075  RH  054%=      5-min Rain = 0
KGU1 191236Z 35003KT 01/M08 A3031 RMK A01 T00081075  RH  054%=      5-min Rain = 0
KGU1 191237Z 35004KT 01/M08 A3031 RMK A01 T00071076  RH  054%=      5-min Rain = 0
KGU1 191238Z 00004KT 00/M08 A3031 RMK A01 T00041076  RH  055%=      5-min Rain = 0
KGU1 191239Z 00004KT 00/M08 A3031 RMK A01 T00041075  RH  055%=      5-min Rain = 0
KGU1 191240Z 02004KT 00/M08 A3031 RMK A01 T00041075  RH  056%=      5-min Rain = 0
KGU1 191241Z 02003KT 01/M07 A3031 RMK A01 T00051074  RH  055%=      5-min Rain = 0
KGU1 191242Z 02003KT 01/M08 A3031 RMK A01 T00061075  RH  055%=      5-min Rain = 0
KGU1 191243Z 01003KT 01/M08 A3031 RMK A01 T00051075  RH  055%=      5-min Rain = 0
KGU1 191244Z 01002KT 00/M08 A3031 RMK A01 T00031076  RH  055%=      5-min Rain = 0
KGU1 191245Z 35002KT 00/M08 A3031 RMK A01 T00021076  RH  056%=      5-min Rain = 0
KGU1 191246Z 33003KT 00/08 A3031 RMK A01 T00000-76  RH  056%=      5-min Rain = 0
KGU1 191247Z 32003KT M00/M08 A3031 RMK A01 T10021077  RH  057%=      5-min Rain = 0
KGU1 191248Z 33002KT M01/M08 A3031 RMK A01 T10051077  RH  058%=      5-min Rain = 0
KGU1 191249Z 34002KT M01/M08 A3031 RMK A01 T10081077  RH  059%=      5-min Rain = 0
KGU1 191250Z 33002KT M01/M08 A3031 RMK A01 T10091076  RH  060%=      5-min Rain = 0
KGU1 191251Z 32002KT M01/M08 A3031 RMK A01 T10101076  RH  061%=      5-min Rain = 0
KGU1 191252Z 33002KT M01/M08 A3031 RMK A01 T10101076  RH  061%=      5-min Rain = 0
KGU1 191253Z 34002KT M01/M08 A3031 RMK A01 T10091076  RH  061%=      5-min Rain = 0
KGU1 191254Z 32002KT M01/M08 A3031 RMK A01 T10091076  RH  061%=      5-min Rain = 0
KGU1 191255Z 33001KT M01/M08 A3031 RMK A01 T10101076  RH  061%=      5-min Rain = 0
KGU1 191256Z 32001KT M01/M08 A3031 RMK A01 T10101076  RH  061%=      5-min Rain = 0
KGU1 191257Z 31001KT M01/M08 A3031 RMK A01 T10111077  RH  061%=      5-min Rain = 0
KGU1 191258Z 29001KT M01/M08 A3031 RMK A01 T10121077  RH  061%=      5-min Rain = 0
KGU1 191259Z 23003KT M01/M08 A3031 RMK A01 T10131077  RH  062%=      5-min Rain = 0
KGU1 191300Z 22003KT M01/M08 A3031 RMK A01 T10131077  RH  062%=      5-min Rain = 0
KGU1 191301Z 21002KT M01/M08 A3032 RMK A01 T10121076  RH  062%=      5-min Rain = 0
KGU1 191302Z 21002KT M01/M08 A3032 RMK A01 T10121076  RH  062%=      5-min Rain = 0
KGU1 191303Z 21000KT M01/M08 A3032 RMK A01 T10091075  RH  061%=      5-min Rain = 0
KGU1 191304Z 00000KT M01/M08 A3032 RMK A01 T10071075  RH  060%=      5-min Rain = 0
KGU1 191305Z 00000KT M01/M08 A3032 RMK A01 T10051075  RH  059%=      5-min Rain = 0
KGU1 191306Z 12001KT M00/M08 A3032 RMK A01 T10041075  RH  058%=      5-min Rain = 0
KGU1 191307Z 12001KT M00/M08 A3032 RMK A01 T10021075  RH  058%=      5-min Rain = 0
KGU1 191308Z 12001KT 00/08 A3032 RMK A01 T00-00-75  RH  057%=      5-min Rain = 0
KGU1 191309Z 11002KT 00/M07 A3032 RMK A01 T00011074  RH  057%=      5-min Rain = 0
KGU1 191310Z 10001KT 00/M07 A3032 RMK A01 T00021074  RH  056%=      5-min Rain = 0
KGU1 191311Z 10001KT 00/M08 A3032 RMK A01 T00031075  RH  056%=      5-min Rain = 0
KGU1 191312Z 11000KT 00/M08 A3032 RMK A01 T00031075  RH  056%=      5-min Rain = 0
KGU1 191313Z 28003KT M00/M08 A3032 RMK A01 T10021079  RH  056%=      5-min Rain = 0
KGU1 191314Z 30004KT M01/M08 A3032 RMK A01 T10121081  RH  059%=      5-min Rain = 0
KGU1 191315Z 30003KT M02/M08 A3032 RMK A01 T10181080  RH  062%=      5-min Rain = 0
KGU1 191316Z 28002KT M02/M08 A3032 RMK A01 T10201078  RH  065%=      5-min Rain = 0
KGU1 191317Z 29002KT M02/M08 A3032 RMK A01 T10201077  RH  065%=      5-min Rain = 0
KGU1 191318Z 28002KT M02/M08 A3032 RMK A01 T10191077  RH  065%=      5-min Rain = 0
KGU1 191319Z 28001KT M02/M08 A3032 RMK A01 T10191077  RH  064%=      5-min Rain = 0
KGU1 191320Z 28001KT M02/M08 A3032 RMK A01 T10181077  RH  064%=      5-min Rain = 0
KGU1 191321Z 28001KT M02/M08 A3032 RMK A01 T10171077  RH  064%=      5-min Rain = 0
KGU1 191322Z 28001KT M02/M08 A3032 RMK A01 T10171077  RH  064%=      5-min Rain = 0
KGU1 191323Z 28001KT M02/M08 A3032 RMK A01 T10161076  RH  063%=      5-min Rain = 0
KGU1 191324Z 29006KT M02/M08 A3032 RMK A01 T10161078  RH  063%=      5-min Rain = 0
KGU1 191325Z 29006KT M02/M08 A3032 RMK A01 T10201079  RH  064%=      5-min Rain = 0
KGU1 191326Z 28005KT M02/M08 A3033 RMK A01 T10201077  RH  065%=      5-min Rain = 0
KGU1 191327Z 27005KT M02/M08 A3033 RMK A01 T10201077  RH  065%=      5-min Rain = 0
KGU1 191328Z 26004KT M02/M08 A3033 RMK A01 T10211077  RH  065%=      5-min Rain = 0
KGU1 191329Z 26004KT M02/M08 A3033 RMK A01 T10211077  RH  065%=      5-min Rain = 0
KGU1 191330Z 26003KT M02/M08 A3033 RMK A01 T10201077  RH  065%=      5-min Rain = 0
KGU1 191331Z 28003KT M02/M08 A3033 RMK A01 T10201078  RH  065%=      5-min Rain = 0
KGU1 191332Z 30004KT M02/M08 A3033 RMK A01 T10231079  RH  065%=      5-min Rain = 0
KGU1 191333Z 29003KT M02/M08 A3033 RMK A01 T10241078  RH  066%=      5-min Rain = 0
KGU1 191334Z 29003KT M03/M08 A3033 RMK A01 T10251078  RH  067%=      5-min Rain = 0
KGU1 191335Z 29003KT M03/M08 A3033 RMK A01 T10251079  RH  067%=      5-min Rain = 0
KGU1 191336Z 29002KT M03/M08 A3033 RMK A01 T10261078  RH  067%=      5-min Rain = 0
KGU1 191337Z 27002KT M02/M08 A3033 RMK A01 T10241077  RH  067%=      5-min Rain = 0
KGU1 191338Z 27002KT M02/M08 A3033 RMK A01 T10231077  RH  067%=      5-min Rain = 0
KGU1 191339Z 25002KT M02/M08 A3033 RMK A01 T10221077  RH  066%=      5-min Rain = 0
KGU1 191340Z 24003KT M02/M08 A3033 RMK A01 T10201075  RH  066%=      5-min Rain = 0
KGU1 191341Z 24004KT M02/M07 A3033 RMK A01 T10171074  RH  065%=      5-min Rain = 0
KGU1 191342Z 24003KT M01/M07 A3033 RMK A01 T10141074  RH  064%=      5-min Rain = 0
KGU1 191343Z 25003KT M01/M07 A3033 RMK A01 T10131074  RH  063%=      5-min Rain = 0
KGU1 191344Z 26003KT M02/M08 A3033 RMK A01 T10151076  RH  063%=      5-min Rain = 0
KGU1 191345Z 28004KT M02/M08 A3033 RMK A01 T10181077  RH  064%=      5-min Rain = 0
KGU1 191346Z 28003KT M02/M08 A3033 RMK A01 T10201077  RH  065%=      5-min Rain = 0
KGU1 191347Z 29003KT M02/M08 A3033 RMK A01 T10221077  RH  066%=      5-min Rain = 0
KGU1 191348Z 29003KT M02/M08 A3033 RMK A01 T10231076  RH  067%=      5-min Rain = 0
KGU1 191349Z 28002KT M02/M08 A3033 RMK A01 T10211075  RH  066%=      5-min Rain = 0
KGU1 191350Z 26002KT M02/M08 A3033 RMK A01 T10201075  RH  066%=      5-min Rain = 0
KGU1 191351Z 26002KT M02/M08 A3033 RMK A01 T10181075  RH  065%=      5-min Rain = 0
KGU1 191352Z 26003KT M02/M08 A3033 RMK A01 T10171075  RH  065%=      5-min Rain = 0
KGU1 191353Z 27005KT M02/M08 A3033 RMK A01 T10181076  RH  064%=      5-min Rain = 0
KGU1 191354Z 27006KT M02/M08 A3033 RMK A01 T10201077  RH  065%=      5-min Rain = 0
KGU1 191355Z 27007KT M02/M08 A3033 RMK A01 T10221076  RH  066%=      5-min Rain = 0
KGU1 191356Z 26006KT M02/M08 A3033 RMK A01 T10211076  RH  066%=      5-min Rain = 0
KGU1 191357Z 25005KT M02/M07 A3033 RMK A01 T10181074  RH  066%=      5-min Rain = 0
KGU1 191358Z 24004KT M01/M07 A3033 RMK A01 T10141072  RH  065%=      5-min Rain = 0
KGU1 191359Z 25004KT M01/M07 A3033 RMK A01 T10111072  RH  063%=      5-min Rain = 0
KGU1 191400Z 26004KT M01/M07 A3034 RMK A01 T10101074  RH  062%=      5-min Rain = 0
KGU1 191401Z 26004KT M01/M08 A3034 RMK A01 T10131077  RH  062%=      5-min Rain = 0
KGU1 191402Z 27004KT M02/M08 A3034 RMK A01 T10171078  RH  063%=      5-min Rain = 0
KGU1 191403Z 27004KT M02/M08 A3034 RMK A01 T10181077  RH  064%=      5-min Rain = 0
KGU1 191404Z 26004KT M02/M08 A3034 RMK A01 T10191077  RH  064%=      5-min Rain = 0
KGU1 191405Z 27004KT M02/M08 A3034 RMK A01 T10181077  RH  064%=      5-min Rain = 0
KGU1 191406Z 27004KT M02/M08 A3034 RMK A01 T10171076  RH  064%=      5-min Rain = 0
KGU1 191407Z 28004KT M02/M08 A3034 RMK A01 T10161076  RH  063%=      5-min Rain = 0
KGU1 191408Z 29004KT M01/M08 A3034 RMK A01 T10141076  RH  063%=      5-min Rain = 0
KGU1 191409Z 29005KT M01/M08 A3034 RMK A01 T10141076  RH  063%=      5-min Rain = 0
KGU1 191410Z 29005KT M01/M08 A3034 RMK A01 T10141075  RH  063%=      5-min Rain = 0
KGU1 191411Z 29005KT M01/M08 A3034 RMK A01 T10141075  RH  063%=      5-min Rain = 0
KGU1 191412Z 29005KT M02/M07 A3034 RMK A01 T10151074  RH  064%=      5-min Rain = 0
KGU1 191413Z 29005KT M02/M07 A3034 RMK A01 T10151074  RH  064%=      5-min Rain = 0
KGU1 191414Z 28004KT M02/M07 A3034 RMK A01 T10151073  RH  064%=      5-min Rain = 0
KGU1 191415Z 27003KT M01/M07 A3034 RMK A01 T10141072  RH  064%=      5-min Rain = 0
KGU1 191416Z 26003KT M01/M07 A3034 RMK A01 T10131072  RH  064%=      5-min Rain = 0
KGU1 191417Z 25003KT M01/M07 A3034 RMK A01 T10111072  RH  063%=      5-min Rain = 0
KGU1 191418Z 24002KT M01/M07 A3034 RMK A01 T10101073  RH  062%=      5-min Rain = 0
KGU1 191419Z 20002KT M01/M07 A3034 RMK A01 T10081073  RH  062%=      5-min Rain = 0
KGU1 191420Z 20002KT M01/M07 A3034 RMK A01 T10061072  RH  061%=      5-min Rain = 0
KGU1 191421Z 20002KT M00/M07 A3034 RMK A01 T10041072  RH  060%=      5-min Rain = 0
KGU1 191422Z 19003KT M00/M07 A3034 RMK A01 T10021071  RH  060%=      5-min Rain = 0
KGU1 191423Z 19003KT M00/M07 A3034 RMK A01 T10011071  RH  059%=      5-min Rain = 0
KGU1 191424Z 19002KT 00/M07 A3034 RMK A01 T00011071  RH  058%=      5-min Rain = 0
KGU1 191425Z 19002KT 00/M07 A3034 RMK A01 T00031070  RH  058%=      5-min Rain = 0
KGU1 191426Z 19002KT 00/M07 A3034 RMK A01 T00041070  RH  057%=      5-min Rain = 0
KGU1 191427Z 20002KT 01/M07 A3035 RMK A01 T00061069  RH  057%=      5-min Rain = 0
KGU1 191428Z 22002KT 01/M07 A3035 RMK A01 T00081068  RH  057%=      5-min Rain = 0
KGU1 191429Z 23001KT 01/M07 A3035 RMK A01 T00091067  RH  057%=      5-min Rain = 0
KGU1 191430Z 26002KT 01/M07 A3035 RMK A01 T00091067  RH  057%=      5-min Rain = 0
KGU1 191431Z 28002KT 01/M07 A3035 RMK A01 T00061066  RH  058%=      5-min Rain = 0
KGU1 191432Z 28002KT 00/M07 A3035 RMK A01 T00041067  RH  059%=      5-min Rain = 0
KGU1 191433Z 29002KT 01/M07 A3035 RMK A01 T00051065  RH  059%=      5-min Rain = 0
KGU1 191434Z 29002KT 01/M06 A3035 RMK A01 T00061064  RH  060%=      5-min Rain = 0
KGU1 191435Z 30002KT 01/M06 A3035 RMK A01 T00071064  RH  059%=      5-min Rain = 0
KGU1 191436Z 30002KT 01/M07 A3035 RMK A01 T00091065  RH  058%=      5-min Rain = 0
KGU1 191437Z 30002KT 01/M06 A3035 RMK A01 T00111063  RH  058%=      5-min Rain = 0
KGU1 191438Z 29002KT 01/M06 A3035 RMK A01 T00131061  RH  058%=      5-min Rain = 0
KGU1 191439Z 29002KT 01/M06 A3035 RMK A01 T00141060  RH  058%=      5-min Rain = 0
KGU1 191440Z 28001KT 02/M06 A3035 RMK A01 T00161060  RH  057%=      5-min Rain = 0
KGU1 191441Z 25001KT 02/M06 A3035 RMK A01 T00171063  RH  055%=      5-min Rain = 0
KGU1 191442Z 25001KT 02/M06 A3035 RMK A01 T00181064  RH  055%=      5-min Rain = 0
KGU1 191443Z 20001KT 02/M06 A3035 RMK A01 T00191064  RH  054%=      5-min Rain = 0
KGU1 191444Z 21001KT 02/M06 A3035 RMK A01 T00201062  RH  054%=      5-min Rain = 0
KGU1 191445Z 22002KT 02/M06 A3035 RMK A01 T00201064  RH  054%=      5-min Rain = 0
KGU1 191446Z 21003KT 02/M07 A3035 RMK A01 T00191068  RH  052%=      5-min Rain = 0
KGU1 191447Z 22002KT 02/M07 A3035 RMK A01 T00201065  RH  053%=      5-min Rain = 0
KGU1 191448Z 22002KT 02/M07 A3035 RMK A01 T00201065  RH  053%=      5-min Rain = 0
KGU1 191449Z 21002KT 02/M06 A3035 RMK A01 T00211064  RH  053%=      5-min Rain = 0
KGU1 191450Z 20002KT 02/M06 A3035 RMK A01 T00211063  RH  054%=      5-min Rain = 0
KGU1 191451Z 20002KT 02/M06 A3035 RMK A01 T00221063  RH  053%=      5-min Rain = 0
KGU1 191452Z 20003KT 02/M06 A3035 RMK A01 T00221064  RH  053%=      5-min Rain = 0
KGU1 191453Z 20002KT 02/M07 A3035 RMK A01 T00211065  RH  053%=      5-min Rain = 0
KGU1 191454Z 20002KT 02/M06 A3035 RMK A01 T00221064  RH  053%=      5-min Rain = 0
KGU1 191455Z 19003KT 02/M06 A3035 RMK A01 T00221064  RH  053%=      5-min Rain = 0
KGU1 191456Z 20003KT 02/M07 A3035 RMK A01 T00221066  RH  052%=      5-min Rain = 0
KGU1 191457Z 21002KT 02/M07 A3035 RMK A01 T00211066  RH  053%=      5-min Rain = 0
KGU1 191458Z 20002KT 02/M07 A3036 RMK A01 T00211066  RH  052%=      5-min Rain = 0
KGU1 191459Z 19002KT 02/M07 A3036 RMK A01 T00221066  RH  052%=      5-min Rain = 0
KGU1 191500Z 17002KT 02/M07 A3036 RMK A01 T00231065  RH  053%=      5-min Rain = 0
KGU1 191501Z 17003KT 02/M07 A3036 RMK A01 T00231065  RH  052%=      5-min Rain = 0
KGU1 191502Z 16004KT 02/M06 A3036 RMK A01 T00241064  RH  052%=      5-min Rain = 0
KGU1 191503Z 15004KT 02/M06 A3036 RMK A01 T00241064  RH  052%=      5-min Rain = 0
KGU1 191504Z 15005KT 02/M06 A3036 RMK A01 T00241062  RH  053%=      5-min Rain = 0
KGU1 191505Z 15006KT 03/M06 A3036 RMK A01 T00251062  RH  053%=      5-min Rain = 0
KGU1 191506Z 16005KT 03/M06 A3036 RMK A01 T00251063  RH  052%=      5-min Rain = 0
KGU1 191507Z 16004KT 02/M06 A3036 RMK A01 T00241063  RH  052%=      5-min Rain = 0
KGU1 191508Z 15005KT 03/M06 A3036 RMK A01 T00251062  RH  053%=      5-min Rain = 0
KGU1 191509Z 15005KT 03/M06 A3036 RMK A01 T00251063  RH  052%=      5-min Rain = 0
KGU1 191510Z 15006KT 03/M06 A3036 RMK A01 T00251062  RH  053%=      5-min Rain = 0
KGU1 191511Z 15006KT 03/M06 A3036 RMK A01 T00251062  RH  053%=      5-min Rain = 0
KGU1 191512Z 15005KT 03/M06 A3036 RMK A01 T00251063  RH  053%=      5-min Rain = 0
KGU1 191513Z 16005KT 03/M06 A3036 RMK A01 T00251062  RH  053%=      5-min Rain = 0
KGU1 191514Z 16005KT 03/M06 A3036 RMK A01 T00251062  RH  053%=      5-min Rain = 0
KGU1 191515Z 16004KT 03/M06 A3036 RMK A01 T00261064  RH  052%=      5-min Rain = 0
KGU1 191516Z 15004KT 03/M06 A3036 RMK A01 T00251063  RH  052%=      5-min Rain = 0
KGU1 191517Z 15004KT 03/M06 A3036 RMK A01 T00261062  RH  052%=      5-min Rain = 0
KGU1 191518Z 16003KT 03/M06 A3036 RMK A01 T00271062  RH  052%=      5-min Rain = 0
KGU1 191519Z 16003KT 03/M06 A3036 RMK A01 T00281062  RH  051%=      5-min Rain = 0
KGU1 191520Z 16002KT 03/M06 A3036 RMK A01 T00291062  RH  051%=      5-min Rain = 0
KGU1 191521Z 17003KT 03/M06 A3036 RMK A01 T00311059  RH  052%=      5-min Rain = 0
KGU1 191522Z 15002KT 03/M06 A3036 RMK A01 T00321062  RH  050%=      5-min Rain = 0
KGU1 191523Z 17002KT 03/M06 A3036 RMK A01 T00331062  RH  050%=      5-min Rain = 0
KGU1 191524Z 15001KT 03/M06 A3036 RMK A01 T00341061  RH  050%=      5-min Rain = 0
KGU1 191525Z 17001KT 04/M06 A3036 RMK A01 T00361060  RH  050%=      5-min Rain = 0
KGU1 191526Z 19002KT 04/M06 A3036 RMK A01 T00381060  RH  049%=      5-min Rain = 0
KGU1 191527Z 19003KT 04/M06 A3036 RMK A01 T00391061  RH  048%=      5-min Rain = 0
KGU1 191528Z 20002KT 04/M06 A3036 RMK A01 T00371062  RH  048%=      5-min Rain = 0
KGU1 191529Z 19003KT 04/M06 A3036 RMK A01 T00371060  RH  049%=      5-min Rain = 0
KGU1 191530Z 19004KT 04/M06 A3036 RMK A01 T00391060  RH  049%=      5-min Rain = 0
KGU1 191531Z 19003KT 04/M06 A3036 RMK A01 T00391060  RH  048%=      5-min Rain = 0
KGU1 191532Z 18003KT 04/M06 A3036 RMK A01 T00391059  RH  049%=      5-min Rain = 0
KGU1 191533Z 18004KT 04/M06 A3036 RMK A01 T00411058  RH  049%=      5-min Rain = 0
KGU1 191534Z 16003KT 04/M06 A3036 RMK A01 T00411058  RH  048%=      5-min Rain = 0
KGU1 191535Z 16005KT 04/M06 A3036 RMK A01 T00401060  RH  048%=      5-min Rain = 0
KGU1 191536Z 15005KT 04/M06 A3036 RMK A01 T00401058  RH  049%=      5-min Rain = 0
KGU1 191537Z 17005KT 04/M06 A3037 RMK A01 T00401059  RH  049%=      5-min Rain = 0
KGU1 191538Z 16005KT 04/M06 A3037 RMK A01 T00381058  RH  049%=      5-min Rain = 0
KGU1 191539Z 16005KT 04/M06 A3037 RMK A01 T00401058  RH  049%=      5-min Rain = 0
KGU1 191540Z 16004KT 04/M06 A3037 RMK A01 T00401058  RH  049%=      5-min Rain = 0
KGU1 191541Z 18003KT 04/M06 A3037 RMK A01 T00411060  RH  048%=      5-min Rain = 0
KGU1 191542Z 18004KT 04/M06 A3037 RMK A01 T00411060  RH  048%=      5-min Rain = 0
KGU1 191543Z 19004KT 04/M06 A3037 RMK A01 T00411060  RH  048%=      5-min Rain = 0
KGU1 191544Z 20003KT 04/M06 A3037 RMK A01 T00401061  RH  048%=      5-min Rain = 0
KGU1 191545Z 19003KT 04/M06 A3037 RMK A01 T00401062  RH  048%=      5-min Rain = 0
KGU1 191546Z 18004KT 04/M06 A3037 RMK A01 T00411061  RH  048%=      5-min Rain = 0
KGU1 191547Z 20004KT 04/M06 A3037 RMK A01 T00401061  RH  048%=      5-min Rain = 0
KGU1 191548Z 19005KT 04/M06 A3037 RMK A01 T00411060  RH  048%=      5-min Rain = 0
KGU1 191549Z 19004KT 04/M06 A3037 RMK A01 T00421061  RH  047%=      5-min Rain = 0
KGU1 191550Z 20005KT 04/M06 A3037 RMK A01 T00431061  RH  047%=      5-min Rain = 0
KGU1 191551Z 20006KT 04/M06 A3037 RMK A01 T00431063  RH  046%=      5-min Rain = 0
KGU1 191552Z 20007KT 04/M06 A3037 RMK A01 T00421064  RH  046%=      5-min Rain = 0
KGU1 191553Z 20007KT 04/M06 A3037 RMK A01 T00411063  RH  047%=      5-min Rain = 0
KGU1 191554Z 21006KT 04/M06 A3037 RMK A01 T00421061  RH  047%=      5-min Rain = 0
KGU1 191555Z 20006KT 04/M06 A3037 RMK A01 T00431061  RH  047%=      5-min Rain = 0
KGU1 191556Z 19007KT 04/M06 A3037 RMK A01 T00431062  RH  047%=      5-min Rain = 0
KGU1 191557Z 20006KT 04/M06 A3037 RMK A01 T00431061  RH  047%=      5-min Rain = 0
KGU1 191558Z 21008KT 04/M06 A3037 RMK A01 T00441060  RH  047%=      5-min Rain = 0
KGU1 191559Z 21008KT 04/M06 A3037 RMK A01 T00441060  RH  047%=      5-min Rain = 0
KGU1 191600Z 21010KT 04/M06 A3037 RMK A01 T00441061  RH  046%=      5-min Rain = 0
KGU1 191601Z 21009KT 04/M06 A3037 RMK A01 T00431062  RH  046%=      5-min Rain = 0
KGU1 191602Z 21007KT 04/M06 A3037 RMK A01 T00421061  RH  047%=      5-min Rain = 0
KGU1 191603Z 20006KT 04/M06 A3037 RMK A01 T00431061  RH  047%=      5-min Rain = 0
KGU1 191604Z 19008KT 04/M06 A3037 RMK A01 T00431061  RH  047%=      5-min Rain = 0
KGU1 191605Z 19008KT 04/M06 A3037 RMK A01 T00431062  RH  047%=      5-min Rain = 0
KGU1 191606Z 21007KT 04/M06 A3037 RMK A01 T00421062  RH  047%=      5-min Rain = 0
KGU1 191607Z 20007KT 05/M06 A3037 RMK A01 T00451059  RH  047%=      5-min Rain = 0
KGU1 191608Z 19008KT 05/M06 A3037 RMK A01 T00461060  RH  046%=      5-min Rain = 0
KGU1 191609Z 19009KT 04/M06 A3037 RMK A01 T00441063  RH  046%=      5-min Rain = 0
KGU1 191610Z 19009KT 04/M06 A3037 RMK A01 T00431062  RH  046%=      5-min Rain = 0
KGU1 191611Z 20010KT 04/M06 A3037 RMK A01 T00431062  RH  046%=      5-min Rain = 0
KGU1 191612Z 20009KT 04/M06 A3038 RMK A01 T00421063  RH  046%=      5-min Rain = 0
KGU1 191613Z 20008KT 04/M06 A3038 RMK A01 T00421063  RH  046%=      5-min Rain = 0
KGU1 191614Z 20008KT 04/M06 A3038 RMK A01 T00431062  RH  046%=      5-min Rain = 0
KGU1 191615Z 20008KT 04/M06 A3038 RMK A01 T00431063  RH  046%=      5-min Rain = 0
KGU1 191616Z 19008KT 04/M06 A3038 RMK A01 T00411063  RH  046%=      5-min Rain = 0
KGU1 191617Z 20006KT 04/M06 A3038 RMK A01 T00421062  RH  047%=      5-min Rain = 0
KGU1 191618Z 21006KT 04/M06 A3038 RMK A01 T00431061  RH  047%=      5-min Rain = 0
KGU1 191619Z 21008KT 05/M06 A3038 RMK A01 T00451062  RH  046%=      5-min Rain = 0
KGU1 191620Z 21008KT 04/M06 A3038 RMK A01 T00431063  RH  046%=      5-min Rain = 0
KGU1 191621Z 21009KT 04/M06 A3038 RMK A01 T00421063  RH  046%=      5-min Rain = 0
KGU1 191622Z 21007G12KT 04/M06 A3038 RMK A01 T00421063  RH  046%=      5-min Rain = 0
KGU1 191623Z 22007KT 04/M06 A3038 RMK A01 T00441062  RH  046%=      5-min Rain = 0
KGU1 191624Z 21008G13KT 05/M06 A3038 RMK A01 T00461060  RH  046%=      5-min Rain = 0
KGU1 191625Z 22010KT 05/M06 A3038 RMK A01 T00471062  RH  045%=      5-min Rain = 0
KGU1 191626Z 22009KT 05/M06 A3038 RMK A01 T00481061  RH  045%=      5-min Rain = 0
KGU1 191627Z 21006KT 05/M06 A3038 RMK A01 T00471064  RH  044%=      5-min Rain = 0
KGU1 191628Z 22009KT 05/M06 A3038 RMK A01 T00471062  RH  045%=      5-min Rain = 0
KGU1 191629Z 20009KT 05/M06 A3038 RMK A01 T00471063  RH  045%=      5-min Rain = 0
KGU1 191630Z 22010KT 05/M06 A3038 RMK A01 T00461062  RH  045%=      5-min Rain = 0
KGU1 191631Z 22013KT 05/M06 A3037 RMK A01 T00461062  RH  045%=      5-min Rain = 0
KGU1 191632Z 22010KT 05/M06 A3038 RMK A01 T00461063  RH  045%=      5-min Rain = 0
KGU1 191633Z 21010KT 05/M06 A3038 RMK A01 T00461062  RH  046%=      5-min Rain = 0
KGU1 191634Z 22012KT 05/M06 A3038 RMK A01 T00461061  RH  046%=      5-min Rain = 0
KGU1 191635Z 22011KT 05/M06 A3038 RMK A01 T00461062  RH  045%=      5-min Rain = 0
KGU1 191636Z 21013KT 05/M06 A3038 RMK A01 T00471062  RH  045%=      5-min Rain = 0
KGU1 191637Z 21013KT 05/M06 A3038 RMK A01 T00471062  RH  045%=      5-min Rain = 0
KGU1 191638Z 21012G17KT 05/M06 A3037 RMK A01 T00471062  RH  045%=      5-min Rain = 0
KGU1 191639Z 21012KT 05/M06 A3037 RMK A01 T00471062  RH  045%=      5-min Rain = 0
KGU1 191640Z 21011KT 05/M06 A3037 RMK A01 T00471062  RH  045%=      5-min Rain = 0
KGU1 191641Z 21012KT 05/M06 A3037 RMK A01 T00491060  RH  045%=      5-min Rain = 0
KGU1 191642Z 21012KT 05/M06 A3037 RMK A01 T00501061  RH  045%=      5-min Rain = 0
KGU1 191643Z 22010KT 05/M06 A3037 RMK A01 T00491063  RH  044%=      5-min Rain = 0
KGU1 191644Z 21014KT 05/M06 A3037 RMK A01 T00491062  RH  045%=      5-min Rain = 0
KGU1 191645Z 22014KT 05/M06 A3037 RMK A01 T00481063  RH  045%=      5-min Rain = 0
KGU1 191646Z 21014KT 05/M06 A3037 RMK A01 T00461063  RH  045%=      5-min Rain = 0
KGU1 191647Z 21012KT 05/M06 A3037 RMK A01 T00451063  RH  045%=      5-min Rain = 0
KGU1 191648Z 21013KT 05/M06 A3037 RMK A01 T00461062  RH  046%=      5-min Rain = 0
KGU1 191649Z 21011G17KT 05/M06 A3037 RMK A01 T00481061  RH  045%=      5-min Rain = 0
KGU1 191650Z 21014KT 05/M06 A3037 RMK A01 T00481062  RH  045%=      5-min Rain = 0
KGU1 191651Z 22015KT 05/M06 A3037 RMK A01 T00481063  RH  045%=      5-min Rain = 0
KGU1 191652Z 22012KT 05/M06 A3037 RMK A01 T00461063  RH  045%=      5-min Rain = 0
KGU1 191653Z 21013KT 05/M06 A3037 RMK A01 T00461062  RH  045%=      5-min Rain = 0
KGU1 191654Z 20011KT 05/M06 A3037 RMK A01 T00471061  RH  045%=      5-min Rain = 0
KGU1 191655Z 21012KT 05/M06 A3037 RMK A01 T00501059  RH  045%=      5-min Rain = 0
KGU1 191656Z 20011G16KT 05/M06 A3037 RMK A01 T00491061  RH  045%=      5-min Rain = 0
KGU1 191657Z 22016KT 05/M06 A3037 RMK A01 T00481062  RH  045%=      5-min Rain = 0
KGU1 191658Z 21014KT 05/M06 A3037 RMK A01 T00471061  RH  045%=      5-min Rain = 0
KGU1 191659Z 21013KT 05/M06 A3037 RMK A01 T00491060  RH  045%=      5-min Rain = 0
KGU1 191700Z 21014KT 05/M06 A3037 RMK A01 T00501061  RH  045%=      5-min Rain = 0
KGU1 191701Z 20014KT 05/M06 A3037 RMK A01 T00491061  RH  045%=      5-min Rain = 0
KGU1 191702Z 21013KT 05/M06 A3037 RMK A01 T00501061  RH  044%=      5-min Rain = 0
KGU1 191703Z 21015KT 05/M06 A3037 RMK A01 T00491062  RH  045%=      5-min Rain = 0
KGU1 191704Z 20013KT 05/M06 A3037 RMK A01 T00491061  RH  045%=      5-min Rain = 0
KGU1 191705Z 21014KT 05/M06 A3037 RMK A01 T00501061  RH  045%=      5-min Rain = 0
KGU1 191706Z 21012KT 05/M06 A3037 RMK A01 T00521061  RH  044%=      5-min Rain = 0
KGU1 191707Z 20016KT 05/M06 A3037 RMK A01 T00521061  RH  044%=      5-min Rain = 0
KGU1 191708Z 21014KT 05/M06 A3037 RMK A01 T00511062  RH  044%=      5-min Rain = 0
KGU1 191709Z 20011KT 05/M06 A3037 RMK A01 T00511061  RH  044%=      5-min Rain = 0
KGU1 191710Z 21013G18KT 05/M06 A3037 RMK A01 T00541060  RH  044%=      5-min Rain = 0
KGU1 191711Z 21013KT 06/M06 A3037 RMK A01 T00551061  RH  043%=      5-min Rain = 0
KGU1 191712Z 21014KT 05/M06 A3037 RMK A01 T00541061  RH  043%=      5-min Rain = 0
KGU1 191713Z 21013KT 05/M06 A3037 RMK A01 T00531061  RH  044%=      5-min Rain = 0
KGU1 191714Z 21016KT 05/M06 A3037 RMK A01 T00541061  RH  043%=      5-min Rain = 0
KGU1 191715Z 21015KT 05/M06 A3037 RMK A01 T00531061  RH  043%=      5-min Rain = 0
KGU1 191716Z 21017KT 05/M06 A3037 RMK A01 T00531062  RH  043%=      5-min Rain = 0
KGU1 191717Z 20014KT 05/M06 A3037 RMK A01 T00521062  RH  044%=      5-min Rain = 0
KGU1 191718Z 21013KT 05/M06 A3037 RMK A01 T00531061  RH  044%=      5-min Rain = 0
KGU1 191719Z 20016KT 05/M06 A3037 RMK A01 T00541061  RH  043%=      5-min Rain = 0
KGU1 191720Z 21018KT 05/M06 A3037 RMK A01 T00541062  RH  043%=      5-min Rain = 0
KGU1 191721Z 20015KT 05/M06 A3037 RMK A01 T00531062  RH  043%=      5-min Rain = 0
KGU1 191722Z 20015KT 06/M06 A3037 RMK A01 T00551060  RH  043%=      5-min Rain = 0
KGU1 191723Z 21014KT 06/M06 A3038 RMK A01 T00561061  RH  043%=      5-min Rain = 0
KGU1 191724Z 20014KT 06/M06 A3038 RMK A01 T00561062  RH  043%=      5-min Rain = 0
KGU1 191725Z 21017KT 06/M06 A3038 RMK A01 T00561061  RH  043%=      5-min Rain = 0
KGU1 191726Z 21015KT 06/M06 A3038 RMK A01 T00561062  RH  042%=      5-min Rain = 0
KGU1 191727Z 20015G22KT 06/M06 A3037 RMK A01 T00551062  RH  043%=      5-min Rain = 0
KGU1 191728Z 21016KT 06/M06 A3037 RMK A01 T00561062  RH  043%=      5-min Rain = 0
KGU1 191729Z 21015KT 06/M06 A3038 RMK A01 T00571061  RH  042%=      5-min Rain = 0
KGU1 191730Z 20013KT 06/M06 A3037 RMK A01 T00571062  RH  042%=      5-min Rain = 0
KGU1 191731Z 21017KT 06/M06 A3037 RMK A01 T00581061  RH  042%=      5-min Rain = 0
KGU1 191732Z 21015G20KT 06/M06 A3037 RMK A01 T00571062  RH  042%=      5-min Rain = 0
KGU1 191733Z 21017KT 06/M06 A3037 RMK A01 T00571062  RH  042%=      5-min Rain = 0
KGU1 191734Z 20014G19KT 06/M06 A3037 RMK A01 T00571062  RH  042%=      5-min Rain = 0
KGU1 191735Z 20018KT 06/M06 A3037 RMK A01 T00591062  RH  042%=      5-min Rain = 0
KGU1 191736Z 20014G19KT 06/M07 A3037 RMK A01 T00591066  RH  040%=      5-min Rain = 0
KGU1 191737Z 21014KT 06/M06 A3037 RMK A01 T00621063  RH  040%=      5-min Rain = 0
KGU1 191738Z 21016KT 06/M06 A3037 RMK A01 T00621062  RH  041%=      5-min Rain = 0
KGU1 191739Z 20017KT 06/M06 A3037 RMK A01 T00611063  RH  041%=      5-min Rain = 0
KGU1 191740Z 20016KT 06/M06 A3037 RMK A01 T00591064  RH  041%=      5-min Rain = 0
KGU1 191741Z 20016KT 06/M06 A3037 RMK A01 T00591062  RH  041%=      5-min Rain = 0
KGU1 191742Z 19017KT 06/M06 A3037 RMK A01 T00601063  RH  041%=      5-min Rain = 0
KGU1 191743Z 21015KT 06/M06 A3037 RMK A01 T00601062  RH  041%=      5-min Rain = 0
KGU1 191744Z 21016KT 06/M06 A3037 RMK A01 T00611062  RH  041%=      5-min Rain = 0
KGU1 191745Z 20013KT 06/M06 A3037 RMK A01 T00611062  RH  041%=      5-min Rain = 0
KGU1 191746Z 22011G17KT 06/M06 A3037 RMK A01 T00641061  RH  041%=      5-min Rain = 0
KGU1 191747Z 22009KT 07/M06 A3037 RMK A01 T00691062  RH  039%=      5-min Rain = 0
KGU1 191748Z 21009KT 07/M06 A3037 RMK A01 T00731060  RH  038%=      5-min Rain = 0
KGU1 191749Z 22012KT 08/M06 A3037 RMK A01 T00751064  RH  037%=      5-min Rain = 0
KGU1 191750Z 22010KT 08/M07 A3037 RMK A01 T00761065  RH  036%=      5-min Rain = 0
KGU1 191751Z 22012G18KT 08/M07 A3037 RMK A01 T00761066  RH  036%=      5-min Rain = 0
KGU1 191752Z 22013KT 08/M07 A3037 RMK A01 T00751068  RH  035%=      5-min Rain = 0
KGU1 191753Z 21009KT 07/M07 A3037 RMK A01 T00741073  RH  035%=      5-min Rain = 0
KGU1 191754Z 20010KT 07/M08 A3037 RMK A01 T00741080  RH  032%=      5-min Rain = 0
KGU1 191755Z 21008G13KT 08/M07 A3037 RMK A01 T00751067  RH  036%=      5-min Rain = 0
KGU1 191756Z 23010KT 08/M07 A3037 RMK A01 T00761066  RH  036%=      5-min Rain = 0
KGU1 191757Z 22009KT 08/M08 A3037 RMK A01 T00781077  RH  033%=      5-min Rain = 0
KGU1 191758Z 23009G15KT 08/M08 A3037 RMK A01 T00801076  RH  032%=      5-min Rain = 0
KGU1 191759Z 24014KT 08/M08 A3037 RMK A01 T00801078  RH  032%=      5-min Rain = 0
KGU1 191800Z 23014KT 08/M08 A3037 RMK A01 T00761077  RH  033%=      5-min Rain = 0
KGU1 191801Z 22011KT 08/M08 A3037 RMK A01 T00751078  RH  033%=      5-min Rain = 0
KGU1 191802Z 21009KT 08/M08 A3037 RMK A01 T00761081  RH  032%=      5-min Rain = 0
KGU1 191803Z 20009G14KT 08/M08 A3037 RMK A01 T00781078  RH  032%=      5-min Rain = 0
KGU1 191804Z 22013G21KT 08/M08 A3037 RMK A01 T00801083  RH  030%=      5-min Rain = 0
KGU1 191805Z 21013KT 08/M08 A3037 RMK A01 T00791083  RH  031%=      5-min Rain = 0
KGU1 191806Z 22010KT 08/M09 A3037 RMK A01 T00781085  RH  031%=      5-min Rain = 0
KGU1 191807Z 23007KT 08/M08 A3037 RMK A01 T00791079  RH  032%=      5-min Rain = 0
KGU1 191808Z 25012KT 08/M07 A3037 RMK A01 T00811074  RH  033%=      5-min Rain = 0
KGU1 191809Z 24011KT 08/M08 A3037 RMK A01 T00791075  RH  033%=      5-min Rain = 0
KGU1 191810Z 24008KT 08/M07 A3037 RMK A01 T00781074  RH  033%=      5-min Rain = 0
KGU1 191811Z 22009KT 08/M08 A3037 RMK A01 T00781077  RH  032%=      5-min Rain = 0
KGU1 191812Z 22010KT 08/M08 A3037 RMK A01 T00801081  RH  031%=      5-min Rain = 0
KGU1 191813Z 25009KT 08/M08 A3037 RMK A01 T00821076  RH  032%=      5-min Rain = 0
KGU1 191814Z 26006G13KT 08/M08 A3037 RMK A01 T00841083  RH  030%=      5-min Rain = 0
KGU1 191815Z 23007G13KT 08/M09 A3037 RMK A01 T00821088  RH  029%=      5-min Rain = 0
KGU1 191816Z 23008KT 08/M08 A3037 RMK A01 T00801084  RH  030%=      5-min Rain = 0
KGU1 191817Z 23011KT 08/M08 A3037 RMK A01 T00811078  RH  031%=      5-min Rain = 0
KGU1 191818Z 22012KT 08/M08 A3037 RMK A01 T00791075  RH  033%=      5-min Rain = 0
KGU1 191819Z 23009KT 08/M07 A3037 RMK A01 T00801074  RH  033%=      5-min Rain = 0
KGU1 191820Z 22012KT 08/M08 A3037 RMK A01 T00811075  RH  032%=      5-min Rain = 0
KGU1 191821Z 22011KT 08/M07 A3037 RMK A01 T00791074  RH  033%=      5-min Rain = 0
KGU1 191822Z 25013KT 08/M07 A3037 RMK A01 T00751072  RH  034%=      5-min Rain = 0
KGU1 191823Z 23011KT 08/M07 A3037 RMK A01 T00751072  RH  034%=      5-min Rain = 0
KGU1 191824Z 23012KT 08/M07 A3037 RMK A01 T00761071  RH  035%=      5-min Rain = 0
KGU1 191825Z 23011G18KT 08/M07 A3037 RMK A01 T00761074  RH  034%=      5-min Rain = 0
KGU1 191826Z 25013G19KT 08/M07 A3037 RMK A01 T00751074  RH  034%=      5-min Rain = 0
KGU1 191827Z 23014G21KT 07/M07 A3037 RMK A01 T00731072  RH  035%=      5-min Rain = 0
KGU1 191828Z 23012KT 07/M08 A3037 RMK A01 T00741078  RH  033%=      5-min Rain = 0
KGU1 191829Z 21010KT 08/M07 A3037 RMK A01 T00761074  RH  034%=      5-min Rain = 0
KGU1 191830Z 23011KT 08/M07 A3037 RMK A01 T00771074  RH  033%=      5-min Rain = 0
KGU1 191831Z 24011KT 08/M07 A3037 RMK A01 T00761074  RH  034%=      5-min Rain = 0
KGU1 191832Z 23011G19KT 08/M07 A3037 RMK A01 T00751072  RH  034%=      5-min Rain = 0
KGU1 191833Z 23013G20KT 08/M08 A3037 RMK A01 T00751076  RH  034%=      5-min Rain = 0
KGU1 191834Z 22012KT 07/M07 A3037 RMK A01 T00731072  RH  035%=      5-min Rain = 0
KGU1 191835Z 22010KT 07/M07 A3037 RMK A01 T00741069  RH  036%=      5-min Rain = 0
KGU1 191836Z 22012KT 08/M07 A3037 RMK A01 T00771072  RH  034%=      5-min Rain = 0
KGU1 191837Z 23011KT 08/M07 A3037 RMK A01 T00781072  RH  034%=      5-min Rain = 0
KGU1 191838Z 22010G15KT 08/M08 A3037 RMK A01 T00771075  RH  033%=      5-min Rain = 0
KGU1 191839Z 22011KT 08/M07 A3037 RMK A01 T00771074  RH  034%=      5-min Rain = 0
KGU1 191840Z 22013G18KT 08/M07 A3037 RMK A01 T00771073  RH  034%=      5-min Rain = 0
KGU1 191841Z 22013G18KT 08/M07 A3037 RMK A01 T00751071  RH  035%=      5-min Rain = 0
KGU1 191842Z 22014KT 08/M07 A3037 RMK A01 T00761070  RH  035%=      5-min Rain = 0
KGU1 191843Z 23011G17KT 08/M07 A3037 RMK A01 T00771072  RH  034%=      5-min Rain = 0
KGU1 191844Z 23011KT 08/M07 A3037 RMK A01 T00761072  RH  034%=      5-min Rain = 0
KGU1 191845Z 23011G16KT 08/M07 A3037 RMK A01 T00771071  RH  034%=      5-min Rain = 0
KGU1 191846Z 23010KT 08/M07 A3037 RMK A01 T00761071  RH  034%=      5-min Rain = 0
KGU1 191847Z 23008KT 08/M07 A3037 RMK A01 T00771067  RH  035%=      5-min Rain = 0
KGU1 191848Z 24010G15KT 08/M07 A3036 RMK A01 T00791071  RH  034%=      5-min Rain = 0
KGU1 191849Z 22010KT 08/M08 A3036 RMK A01 T00781077  RH  032%=      5-min Rain = 0
KGU1 191850Z 24011G16KT 08/M08 A3036 RMK A01 T00791075  RH  033%=      5-min Rain = 0
KGU1 191851Z 24012KT 08/M08 A3036 RMK A01 T00771077  RH  033%=      5-min Rain = 0
KGU1 191852Z 22012KT 07/M07 A3036 RMK A01 T00741073  RH  034%=      5-min Rain = 0
KGU1 191853Z 23012KT 08/M07 A3036 RMK A01 T00751072  RH  034%=      5-min Rain = 0
KGU1 191854Z 25011KT 08/M08 A3036 RMK A01 T00761075  RH  034%=      5-min Rain = 0
KGU1 191855Z 23008KT 08/M07 A3036 RMK A01 T00771074  RH  033%=      5-min Rain = 0
KGU1 191856Z 23009G16KT 08/M07 A3036 RMK A01 T00791074  RH  033%=      5-min Rain = 0
KGU1 191857Z 24010KT 08/M08 A3036 RMK A01 T00801076  RH  032%=      5-min Rain = 0
KGU1 191858Z 24008KT 08/M07 A3036 RMK A01 T00801074  RH  033%=      5-min Rain = 0
KGU1 191859Z 23006KT 08/M07 A3036 RMK A01 T00811071  RH  033%=      5-min Rain = 0
KGU1 191900Z 23009KT 08/M07 A3036 RMK A01 T00811071  RH  033%=      5-min Rain = 0
KGU1 191901Z 25011KT 08/M07 A3036 RMK A01 T00781072  RH  034%=      5-min Rain = 0
KGU1 191902Z 27008KT 08/M07 A3036 RMK A01 T00771074  RH  033%=      5-min Rain = 0
KGU1 191903Z 24008KT 08/M08 A3036 RMK A01 T00771076  RH  033%=      5-min Rain = 0
KGU1 191904Z 25012KT 08/M07 A3036 RMK A01 T00771072  RH  034%=      5-min Rain = 0
KGU1 191905Z 24012G17KT 08/M07 A3036 RMK A01 T00751074  RH  034%=      5-min Rain = 0
KGU1 191906Z 22011KT 07/M07 A3036 RMK A01 T00741073  RH  034%=      5-min Rain = 0
KGU1 191907Z 23009KT 08/M07 A3035 RMK A01 T00771072  RH  034%=      5-min Rain = 0
KGU1 191908Z 23012KT 08/M08 A3036 RMK A01 T00781075  RH  033%=      5-min Rain = 0
KGU1 191909Z 24012KT 08/M08 A3035 RMK A01 T00771075  RH  033%=      5-min Rain = 0
KGU1 191910Z 24009KT 08/M08 A3035 RMK A01 T00761075  RH  034%=      5-min Rain = 0
KGU1 191911Z 21012KT 08/M07 A3035 RMK A01 T00761074  RH  034%=      5-min Rain = 0
KGU1 191912Z 22011KT 08/M07 A3035 RMK A01 T00751074  RH  034%=      5-min Rain = 0
KGU1 191913Z 24009KT 07/M08 A3035 RMK A01 T00741078  RH  033%=      5-min Rain = 0
KGU1 191914Z 22009G14KT 08/M07 A3035 RMK A01 T00761073  RH  034%=      5-min Rain = 0
KGU1 191915Z 23013KT 08/M07 A3035 RMK A01 T00791071  RH  034%=      5-min Rain = 0
KGU1 191916Z 24013KT 08/M07 A3035 RMK A01 T00781073  RH  033%=      5-min Rain = 0
KGU1 191917Z 24011KT 08/M08 A3035 RMK A01 T00761077  RH  033%=      5-min Rain = 0
KGU1 191918Z 22012G17KT 07/M07 A3035 RMK A01 T00741074  RH  034%=      5-min Rain = 0
KGU1 191919Z 23011KT 08/M07 A3035 RMK A01 T00761070  RH  035%=      5-min Rain = 0
KGU1 191920Z 24009KT 08/M07 A3035 RMK A01 T00781070  RH  034%=      5-min Rain = 0
KGU1 191921Z 23008G13KT 08/M07 A3035 RMK A01 T00791072  RH  034%=      5-min Rain = 0
KGU1 191922Z 23007G12KT 08/M07 A3035 RMK A01 T00811071  RH  033%=      5-min Rain = 0
KGU1 191923Z 23010KT 08/M07 A3035 RMK A01 T00841073  RH  032%=      5-min Rain = 0
KGU1 191924Z 24008KT 08/M08 A3035 RMK A01 T00821078  RH  031%=      5-min Rain = 0
KGU1 191925Z 23010KT 08/M07 A3035 RMK A01 T00821073  RH  032%=      5-min Rain = 0
KGU1 191926Z 23011KT 08/M07 A3035 RMK A01 T00811074  RH  032%=      5-min Rain = 0
KGU1 191927Z 25007G12KT 08/M07 A3035 RMK A01 T00791071  RH  034%=      5-min Rain = 0
KGU1 191928Z 23012G17KT 08/M07 A3034 RMK A01 T00811074  RH  033%=      5-min Rain = 0
KGU1 191929Z 22012KT 08/M08 A3034 RMK A01 T00801075  RH  033%=      5-min Rain = 0
KGU1 191930Z 24008KT 08/M07 A3034 RMK A01 T00801072  RH  033%=      5-min Rain = 0
KGU1 191931Z 22012G17KT 08/M07 A3034 RMK A01 T00811073  RH  033%=      5-min Rain = 0
KGU1 191932Z 22011KT 08/M07 A3034 RMK A01 T00801074  RH  033%=      5-min Rain = 0
KGU1 191933Z 23008KT 08/M07 A3034 RMK A01 T00791073  RH  033%=      5-min Rain = 0
KGU1 191934Z 24011KT 08/M07 A3034 RMK A01 T00811070  RH  034%=      5-min Rain = 0
KGU1 191935Z 23009KT 08/M07 A3034 RMK A01 T00801072  RH  033%=      5-min Rain = 0
KGU1 191936Z 26009G16KT 08/M07 A3034 RMK A01 T00801071  RH  034%=      5-min Rain = 0
KGU1 191937Z 25010KT 08/M07 A3034 RMK A01 T00811069  RH  034%=      5-min Rain = 0
KGU1 191938Z 23013KT 08/M08 A3034 RMK A01 T00831075  RH  032%=      5-min Rain = 0
KGU1 191939Z 22012KT 08/M08 A3034 RMK A01 T00811076  RH  032%=      5-min Rain = 0
KGU1 191940Z 22009KT 08/M07 A3034 RMK A01 T00791072  RH  034%=      5-min Rain = 0
KGU1 191941Z 22011KT 08/M07 A3033 RMK A01 T00821071  RH  033%=      5-min Rain = 0
KGU1 191942Z 22014KT 08/M07 A3033 RMK A01 T00831073  RH  032%=      5-min Rain = 0
KGU1 191943Z 24012KT 08/M08 A3033 RMK A01 T00801076  RH  032%=      5-min Rain = 0
KGU1 191944Z 22011KT 08/M08 A3033 RMK A01 T00781078  RH  032%=      5-min Rain = 0
KGU1 191945Z 22009KT 08/M08 A3033 RMK A01 T00791075  RH  033%=      5-min Rain = 0
KGU1 191946Z 22011G17KT 08/M07 A3033 RMK A01 T00821071  RH  033%=      5-min Rain = 0
KGU1 191947Z 22008KT 08/M07 A3033 RMK A01 T00831069  RH  033%=      5-min Rain = 0
KGU1 191948Z 22012KT 08/M07 A3033 RMK A01 T00841071  RH  033%=      5-min Rain = 0
KGU1 191949Z 22010KT 08/M07 A3033 RMK A01 T00841070  RH  033%=      5-min Rain = 0
KGU1 191950Z 22011G17KT 09/M07 A3033 RMK A01 T00851071  RH  032%=      5-min Rain = 0
KGU1 191951Z 21010KT 08/M07 A3033 RMK A01 T00841073  RH  032%=      5-min Rain = 0
KGU1 191952Z 23010KT 09/M07 A3033 RMK A01 T00861072  RH  032%=      5-min Rain = 0
KGU1 191953Z 20008G15KT 09/M07 A3033 RMK A01 T00871072  RH  032%=      5-min Rain = 0
KGU1 191954Z 23013G19KT 09/M08 A3033 RMK A01 T00871079  RH  030%=      5-min Rain = 0
KGU1 191955Z 23010KT 08/M08 A3033 RMK A01 T00831081  RH  030%=      5-min Rain = 0
KGU1 191956Z 23010KT 08/M08 A3033 RMK A01 T00831077  RH  031%=      5-min Rain = 0
KGU1 191957Z 25010KT 08/M08 A3033 RMK A01 T00831079  RH  031%=      5-min Rain = 0
KGU1 191958Z 24009KT 08/M08 A3033 RMK A01 T00821081  RH  031%=      5-min Rain = 0
KGU1 191959Z 24006KT 08/M08 A3033 RMK A01 T00831077  RH  031%=      5-min Rain = 0
KGU1 192000Z 25006KT 09/M08 A3033 RMK A01 T00871079  RH  030%=      5-min Rain = 0
KGU1 192001Z 27007KT 09/M08 A3033 RMK A01 T00881084  RH  029%=      5-min Rain = 0
KGU1 192002Z 23008KT 09/M08 A3032 RMK A01 T00871079  RH  030%=      5-min Rain = 0
KGU1 192003Z 24011KT 09/M07 A3032 RMK A01 T00881074  RH  031%=      5-min Rain = 0
KGU1 192004Z 24010KT 09/M08 A3032 RMK A01 T00861076  RH  031%=      5-min Rain = 0
KGU1 192005Z 26008KT 08/M08 A3032 RMK A01 T00821077  RH  031%=      5-min Rain = 0
KGU1 192006Z 27012KT 08/M08 A3032 RMK A01 T00831082  RH  030%=      5-min Rain = 0
KGU1 192007Z 26009KT 08/M09 A3032 RMK A01 T00841086  RH  029%=      5-min Rain = 0
KGU1 192008Z 25006KT 08/M08 A3032 RMK A01 T00841083  RH  030%=      5-min Rain = 0
KGU1 192009Z 27007KT 09/M08 A3032 RMK A01 T00851083  RH  029%=      5-min Rain = 0
KGU1 192010Z 26007KT 09/M08 A3032 RMK A01 T00871084  RH  029%=      5-min Rain = 0
KGU1 192011Z 28005KT 09/M09 A3032 RMK A01 T00891089  RH  027%=      5-min Rain = 0
KGU1 192012Z 26008KT 09/M09 A3032 RMK A01 T00861091  RH  028%=      5-min Rain = 0
KGU1 192013Z 24008KT 09/M09 A3032 RMK A01 T00851091  RH  028%=      5-min Rain = 0
KGU1 192014Z 23006KT 08/M09 A3032 RMK A01 T00831088  RH  029%=      5-min Rain = 0
KGU1 192015Z 22008KT 09/M08 A3032 RMK A01 T00851078  RH  031%=      5-min Rain = 0
KGU1 192016Z 23008KT 09/M07 A3031 RMK A01 T00871073  RH  031%=      5-min Rain = 0
KGU1 192017Z 23010KT 09/M08 A3031 RMK A01 T00871076  RH  031%=      5-min Rain = 0
KGU1 192018Z 22007KT 09/M08 A3031 RMK A01 T00861075  RH  031%=      5-min Rain = 0
KGU1 192019Z 21010KT 09/M08 A3031 RMK A01 T00891078  RH  030%=      5-min Rain = 0
KGU1 192020Z 25007KT 09/M08 A3031 RMK A01 T00891082  RH  029%=      5-min Rain = 0
KGU1 192021Z 25006KT 09/M09 A3031 RMK A01 T00921085  RH  028%=      5-min Rain = 0
KGU1 192022Z 24006KT 09/M09 A3031 RMK A01 T00931086  RH  027%=      5-min Rain = 0
KGU1 192023Z 25009KT 09/M08 A3031 RMK A01 T00921082  RH  028%=      5-min Rain = 0
KGU1 192024Z 26008G13KT 09/M09 A3031 RMK A01 T00911091  RH  027%=      5-min Rain = 0
KGU1 192025Z 24009KT 09/M09 A3031 RMK A01 T00901089  RH  027%=      5-min Rain = 0
KGU1 192026Z 26009G14KT 09/M08 A3031 RMK A01 T00891083  RH  029%=      5-min Rain = 0
KGU1 192027Z 22008KT 09/M09 A3031 RMK A01 T00901086  RH  028%=      5-min Rain = 0
KGU1 192028Z 21008KT 09/M08 A3031 RMK A01 T00901083  RH  028%=      5-min Rain = 0
KGU1 192029Z 19007KT 09/M08 A3031 RMK A01 T00901078  RH  030%=      5-min Rain = 0
KGU1 192030Z 25005KT 09/M08 A303 RMK A01 T00891078  RH  030%=      5-min Rain = 0
KGU1 192031Z 26007KT 09/M09 A3031 RMK A01 T00901090  RH  027%=      5-min Rain = 0
KGU1 192032Z 26008KT 09/M09 A303 RMK A01 T00921090  RH  027%=      5-min Rain = 0
KGU1 192033Z 27010G16KT 09/M09 A303 RMK A01 T00941092  RH  026%=      5-min Rain = 0
KGU1 192034Z 26012G18KT 09/M10 A303 RMK A01 T00931097  RH  025%=      5-min Rain = 0
KGU1 192035Z 25011KT 09/M10 A303 RMK A01 T00931100  RH  024%=      5-min Rain = 0
KGU1 192036Z 24011KT 09/M10 A303 RMK A01 T00911100  RH  025%=      5-min Rain = 0
KGU1 192037Z 26012KT 09/M10 A303 RMK A01 T00891099  RH  025%=      5-min Rain = 0
KGU1 192038Z 25010KT 09/M10 A303 RMK A01 T00901098  RH  025%=      5-min Rain = 0
KGU1 192039Z 24008KT 09/M10 A3031 RMK A01 T00911098  RH  025%=      5-min Rain = 0
KGU1 192040Z 22008KT 09/M10 A303 RMK A01 T00921099  RH  025%=      5-min Rain = 0
KGU1 192041Z 21006KT 09/M10 A303 RMK A01 T00941098  RH  025%=      5-min Rain = 0
KGU1 192042Z 26006KT 10/M10 A303 RMK A01 T00951101  RH  024%=      5-min Rain = 0
KGU1 192043Z 26008KT 10/M10 A303 RMK A01 T00951100  RH  024%=      5-min Rain = 0
KGU1 192044Z 23006KT 09/M10 A303 RMK A01 T00931100  RH  024%=      5-min Rain = 0
KGU1 192045Z 24012KT 09/M10 A303 RMK A01 T00941101  RH  024%=      5-min Rain = 0
KGU1 192046Z 24010KT 09/M10 A303 RMK A01 T00901102  RH  025%=      5-min Rain = 0
KGU1 192047Z 23010KT 09/M10 A303 RMK A01 T00891098  RH  026%=      5-min Rain = 0
KGU1 192048Z 24008KT 09/M10 A303 RMK A01 T00901098  RH  025%=      5-min Rain = 0
KGU1 192049Z 27010KT 09/M10 A303 RMK A01 T00921098  RH  025%=      5-min Rain = 0
KGU1 192050Z 27011G17KT 09/M10 A303 RMK A01 T00911095  RH  026%=      5-min Rain = 0
KGU1 192051Z 24011KT 09/M10 A303 RMK A01 T00921099  RH  025%=      5-min Rain = 0
KGU1 192052Z 22008KT 09/M10 A303 RMK A01 T00911103  RH  024%=      5-min Rain = 0
KGU1 192053Z 24009KT 09/M10 A303 RMK A01 T00921104  RH  024%=      5-min Rain = 0
KGU1 192054Z 26007KT 09/M10 A303 RMK A01 T00921102  RH  024%=      5-min Rain = 0
KGU1 192055Z 24010KT 09/M10 A303 RMK A01 T00941100  RH  024%=      5-min Rain = 0
KGU1 192056Z 23009KT 10/M10 A303 RMK A01 T00951104  RH  023%=      5-min Rain = 0
KGU1 192057Z 23005KT 10/M11 A303 RMK A01 T00951106  RH  023%=      5-min Rain = 0
KGU1 192058Z 24008KT 10/M10 A303 RMK A01 T00981103  RH  023%=      5-min Rain = 0
KGU1 192059Z 22006KT 10/M10 A303 RMK A01 T00991102  RH  023%=      5-min Rain = 0
KGU1 192100Z 25012G17KT 10/M10 A303 RMK A01 T00971101  RH  024%=      5-min Rain = 0
KGU1 192101Z 27010KT 10/M10 A303 RMK A01 T00961099  RH  024%=      5-min Rain = 0
KGU1 192102Z 25008KT 10/M10 A303 RMK A01 T00951097  RH  025%=      5-min Rain = 0
KGU1 192103Z 24008KT 10/M10 A303 RMK A01 T00951099  RH  024%=      5-min Rain = 0
KGU1 192104Z 28006KT 10/M10 A303 RMK A01 T00951101  RH  024%=      5-min Rain = 0
KGU1 192105Z 25007KT 09/M10 A303 RMK A01 T00931102  RH  024%=      5-min Rain = 0
KGU1 192106Z 22004KT 09/M10 A303 RMK A01 T00941104  RH  024%=      5-min Rain = 0
KGU1 192107Z 25006KT 10/M11 A303 RMK A01 T00951106  RH  023%=      5-min Rain = 0
KGU1 192108Z 24007KT 10/M10 A303 RMK A01 T00981101  RH  023%=      5-min Rain = 0
KGU1 192109Z 25009KT 10/M10 A303 RMK A01 T00991102  RH  023%=      5-min Rain = 0
KGU1 192110Z 27009KT 10/M10 A303 RMK A01 T00971100  RH  024%=      5-min Rain = 0
KGU1 192111Z 23006KT 10/M10 A303 RMK A01 T00971099  RH  024%=      5-min Rain = 0
KGU1 192112Z 25005KT 10/M10 A303 RMK A01 T00971102  RH  023%=      5-min Rain = 0
KGU1 192113Z 19007G12KT 10/M10 A303 RMK A01 T00961095  RH  025%=      5-min Rain = 0
KGU1 192114Z 18009KT 09/M08 A3029 RMK A01 T00931078  RH  029%=      5-min Rain = 0
KGU1 192115Z 19006KT 09/M09 A3029 RMK A01 T00901085  RH  028%=      5-min Rain = 0
KGU1 192116Z 25005KT 09/M09 A3029 RMK A01 T00901090  RH  027%=      5-min Rain = 0
KGU1 192117Z 26004KT 09/M09 A303 RMK A01 T00941091  RH  026%=      5-min Rain = 0
KGU1 192118Z 25006KT 10/M09 A3029 RMK A01 T00991094  RH  024%=      5-min Rain = 0
KGU1 192119Z 27011KT 10/M10 A3029 RMK A01 T01001100  RH  023%=      5-min Rain = 0
KGU1 192120Z 26007KT 10/M10 A3029 RMK A01 T00981100  RH  024%=      5-min Rain = 0
KGU1 192121Z 23009KT 10/M10 A3029 RMK A01 T00991100  RH  023%=      5-min Rain = 0
KGU1 192122Z 23009KT 10/M11 A3029 RMK A01 T00981105  RH  023%=      5-min Rain = 0
KGU1 192123Z 23010KT 10/M11 A3029 RMK A01 T00961114  RH  021%=      5-min Rain = 0
KGU1 192124Z 21008KT 09/M12 A3029 RMK A01 T00941115  RH  021%=      5-min Rain = 0
KGU1 192125Z 20004KT 09/M11 A3029 RMK A01 T00941107  RH  023%=      5-min Rain = 0
KGU1 192126Z 26004KT 10/M10 A3029 RMK A01 T00961096  RH  025%=      5-min Rain = 0
KGU1 192127Z 22008KT 10/M10 A3029 RMK A01 T00971101  RH  024%=      5-min Rain = 0
KGU1 192128Z 21005KT 10/M10 A3029 RMK A01 T00971100  RH  024%=      5-min Rain = 0
KGU1 192129Z 23006KT 10/M10 A3029 RMK A01 T00981101  RH  023%=      5-min Rain = 0
KGU1 192130Z 26010G15KT 10/M10 A3029 RMK A01 T00991098  RH  024%=      5-min Rain = 0
KGU1 192131Z 27008KT 10/M10 A3029 RMK A01 T00991096  RH  024%=      5-min Rain = 0
KGU1 192132Z 26008G13KT 10/M10 A3029 RMK A01 T00991095  RH  024%=      5-min Rain = 0
KGU1 192133Z 23007KT 10/M10 A3029 RMK A01 T00991095  RH  024%=      5-min Rain = 0
KGU1 192134Z 21009G14KT 10/M10 A3029 RMK A01 T00991096  RH  024%=      5-min Rain = 0
KGU1 192135Z 21010KT 10/M10 A3029 RMK A01 T00991102  RH  023%=      5-min Rain = 0
KGU1 192136Z 21007KT 10/M11 A3029 RMK A01 T00971105  RH  023%=      5-min Rain = 0
KGU1 192137Z 22006KT 10/M10 A3029 RMK A01 T00971101  RH  024%=      5-min Rain = 0
KGU1 192138Z 18006KT 10/M10 A3029 RMK A01 T00981096  RH  024%=      5-min Rain = 0
KGU1 192139Z 20004KT 10/M09 A3029 RMK A01 T00981089  RH  026%=      5-min Rain = 0
KGU1 192140Z 25006KT 10/M09 A3029 RMK A01 T01011093  RH  024%=      5-min Rain = 0
KGU1 192141Z 25009G14KT 10/M10 A3029 RMK A01 T01011099  RH  023%=      5-min Rain = 0
KGU1 192142Z 26007KT 10/M10 A3029 RMK A01 T01001099  RH  023%=      5-min Rain = 0
KGU1 192143Z 25008KT 10/M10 A3029 RMK A01 T01011097  RH  024%=      5-min Rain = 0
KGU1 192144Z 26009KT 10/M10 A3029 RMK A01 T01011097  RH  024%=      5-min Rain = 0
KGU1 192145Z 26007KT 10/M10 A3029 RMK A01 T01011096  RH  024%=      5-min Rain = 0
KGU1 192146Z 24009KT 10/M10 A3029 RMK A01 T01021096  RH  024%=      5-min Rain = 0
KGU1 192147Z 28007KT 10/M10 A3029 RMK A01 T01011096  RH  024%=      5-min Rain = 0
KGU1 192148Z 26008KT 10/M10 A3029 RMK A01 T01001096  RH  024%=      5-min Rain = 0
KGU1 192149Z 25007KT 10/M10 A3029 RMK A01 T01011096  RH  024%=      5-min Rain = 0
KGU1 192150Z 25007G13KT 10/M09 A3029 RMK A01 T01021094  RH  024%=      5-min Rain = 0
KGU1 192151Z 25009G15KT 10/M10 A3029 RMK A01 T01031096  RH  024%=      5-min Rain = 0
KGU1 192152Z 27006G11KT 10/M10 A3029 RMK A01 T01031097  RH  024%=      5-min Rain = 0
KGU1 192153Z 26009G14KT 10/M10 A3029 RMK A01 T01031098  RH  023%=      5-min Rain = 0
KGU1 192154Z 25007KT 10/M10 A3029 RMK A01 T01011099  RH  023%=      5-min Rain = 0
KGU1 192155Z 28005KT 10/M10 A3029 RMK A01 T01011097  RH  024%=      5-min Rain = 0
KGU1 192156Z 27008KT 10/M10 A3029 RMK A01 T01011097  RH  024%=      5-min Rain = 0
KGU1 192157Z 28008G14KT 10/M09 A3029 RMK A01 T01011094  RH  024%=      5-min Rain = 0
KGU1 192158Z 27008G13KT 10/M10 A3028 RMK A01 T01021095  RH  024%=      5-min Rain = 0
KGU1 192159Z 26004KT 10/M10 A3028 RMK A01 T01031095  RH  024%=      5-min Rain = 0
KGU1 192200Z 27010KT 10/M09 A3028 RMK A01 T01041094  RH  024%=      5-min Rain = 0
KGU1 192201Z 27008KT 10/M10 A3028 RMK A01 T01011095  RH  024%=      5-min Rain = 0
KGU1 192202Z 26006G12KT 10/M09 A3028 RMK A01 T01001094  RH  025%=      5-min Rain = 0
KGU1 192203Z 27008KT 10/M09 A3028 RMK A01 T01001092  RH  025%=      5-min Rain = 0
KGU1 192204Z 27010KT 10/M09 A3028 RMK A01 T01001091  RH  025%=      5-min Rain = 0
KGU1 192205Z 27011KT 10/M09 A3028 RMK A01 T01001092  RH  025%=      5-min Rain = 0
KGU1 192206Z 27010KT 10/M09 A3028 RMK A01 T01001091  RH  025%=      5-min Rain = 0
KGU1 192207Z 28011KT 10/M09 A3028 RMK A01 T01011091  RH  025%=      5-min Rain = 0
KGU1 192208Z 27013KT 10/M09 A3028 RMK A01 T01001092  RH  025%=      5-min Rain = 0
KGU1 192209Z 27015KT 10/M09 A3028 RMK A01 T00991091  RH  025%=      5-min Rain = 0
KGU1 192210Z 27015KT 10/M09 A3028 RMK A01 T00981092  RH  025%=      5-min Rain = 0
KGU1 192211Z 28013KT 10/M09 A3028 RMK A01 T00971094  RH  025%=      5-min Rain = 0
KGU1 192212Z 28015KT 10/M10 A3028 RMK A01 T00961095  RH  025%=      5-min Rain = 0
KGU1 192213Z 27012KT 10/M09 A3028 RMK A01 T00961092  RH  025%=      5-min Rain = 0
KGU1 192214Z 27014KT 10/M09 A3028 RMK A01 T00971091  RH  025%=      5-min Rain = 0
KGU1 192215Z 28015KT 10/M09 A3028 RMK A01 T00981092  RH  025%=      5-min Rain = 0
KGU1 192216Z 28013KT 10/M09 A3028 RMK A01 T00971092  RH  025%=      5-min Rain = 0
KGU1 192217Z 28013G18KT 10/M09 A3028 RMK A01 T00971092  RH  025%=      5-min Rain = 0
KGU1 192218Z 29013KT 10/M09 A3028 RMK A01 T00961092  RH  025%=      5-min Rain = 0
KGU1 192219Z 28012G17KT 10/M09 A3028 RMK A01 T00971089  RH  026%=      5-min Rain = 0
KGU1 192220Z 28013G18KT 10/M09 A3028 RMK A01 T00981092  RH  025%=      5-min Rain = 0
KGU1 192221Z 29014KT 10/M09 A3028 RMK A01 T00971092  RH  025%=      5-min Rain = 0
KGU1 192222Z 29012KT 10/M09 A3028 RMK A01 T00961092  RH  025%=      5-min Rain = 0
KGU1 192223Z 29015KT 10/M09 A3028 RMK A01 T00961093  RH  025%=      5-min Rain = 0
KGU1 192224Z 29014KT 10/M09 A3028 RMK A01 T00961093  RH  025%=      5-min Rain = 0
KGU1 192225Z 29015KT 10/M09 A3028 RMK A01 T00961094  RH  025%=      5-min Rain = 0
KGU1 192226Z 29014KT 10/M10 A3028 RMK A01 T00951095  RH  025%=      5-min Rain = 0
KGU1 192227Z 29013KT 10/M09 A3028 RMK A01 T00951093  RH  025%=      5-min Rain = 0
KGU1 192228Z 28014KT 10/M09 A3028 RMK A01 T00951094  RH  025%=      5-min Rain = 0
KGU1 192229Z 29015KT 10/M09 A3029 RMK A01 T00951093  RH  025%=      5-min Rain = 0
KGU1 192230Z 29013KT 10/M09 A3029 RMK A01 T00951094  RH  025%=      5-min Rain = 0
KGU1 192231Z 28015KT 10/M09 A3029 RMK A01 T00951094  RH  025%=      5-min Rain = 0
KGU1 192232Z 28012KT 09/M09 A3029 RMK A01 T00941094  RH  025%=      5-min Rain = 0
KGU1 192233Z 28015KT 10/M09 A3029 RMK A01 T00961093  RH  025%=      5-min Rain = 0
KGU1 192234Z 29014KT 10/M09 A3029 RMK A01 T00951093  RH  025%=      5-min Rain = 0
KGU1 192235Z 28010KT 10/M09 A3029 RMK A01 T00951093  RH  026%=      5-min Rain = 0
KGU1 192236Z 28015KT 10/M09 A3029 RMK A01 T00961092  RH  025%=      5-min Rain = 0
KGU1 192237Z 28012KT 10/M09 A3029 RMK A01 T00961094  RH  025%=      5-min Rain = 0
KGU1 192238Z 29013KT 10/M09 A3029 RMK A01 T00971090  RH  026%=      5-min Rain = 0
KGU1 192239Z 29013KT 10/M09 A3029 RMK A01 T00951091  RH  026%=      5-min Rain = 0
KGU1 192240Z 28010KT 09/M09 A3029 RMK A01 T00941089  RH  026%=      5-min Rain = 0
KGU1 192241Z 29011KT 10/M09 A3029 RMK A01 T00951090  RH  026%=      5-min Rain = 0
KGU1 192242Z 28010KT 10/M09 A3029 RMK A01 T00961091  RH  026%=      5-min Rain = 0
KGU1 192243Z 28012KT 10/M09 A3029 RMK A01 T00961090  RH  026%=      5-min Rain = 0
KGU1 192244Z 29012KT 10/M09 A3029 RMK A01 T00961088  RH  026%=      5-min Rain = 0
KGU1 192245Z 29013KT 10/M09 A3029 RMK A01 T00961089  RH  026%=      5-min Rain = 0
KGU1 192246Z 28013KT 10/M09 A3029 RMK A01 T00951092  RH  026%=      5-min Rain = 0
KGU1 192247Z 28010KT 10/M09 A3029 RMK A01 T00961091  RH  026%=      5-min Rain = 0
KGU1 192248Z 28008KT 10/M09 A3029 RMK A01 T00961089  RH  026%=      5-min Rain = 0
KGU1 192249Z 28006KT 10/M09 A3029 RMK A01 T00981086  RH  026%=      5-min Rain = 0
KGU1 192250Z 28009KT 10/M09 A3029 RMK A01 T00991086  RH  026%=      5-min Rain = 0
KGU1 192251Z 27010KT 10/M09 A3029 RMK A01 T00991087  RH  026%=      5-min Rain = 0
KGU1 192252Z 28013KT 10/M09 A3029 RMK A01 T00981088  RH  026%=      5-min Rain = 0
KGU1 192253Z 29012G17KT 10/M09 A3029 RMK A01 T00951090  RH  026%=      5-min Rain = 0
KGU1 192254Z 28007KT 09/M09 A3029 RMK A01 T00931088  RH  027%=      5-min Rain = 0
KGU1 192255Z 28008KT 10/M08 A3029 RMK A01 T00951084  RH  027%=      5-min Rain = 0
KGU1 192256Z 29012KT 10/M09 A3029 RMK A01 T00961087  RH  027%=      5-min Rain = 0
KGU1 192257Z 29013KT 10/M09 A3029 RMK A01 T00951091  RH  026%=      5-min Rain = 0
KGU1 192258Z 27014KT 09/M09 A3029 RMK A01 T00941093  RH  026%=      5-min Rain = 0
KGU1 192259Z 27014KT 09/M09 A3029 RMK A01 T00941093  RH  025%=      5-min Rain = 0
KGU1 192300Z 26011KT 09/M09 A3029 RMK A01 T00941093  RH  025%=      5-min Rain = 0
KGU1 192301Z 26011KT 09/M10 A3029 RMK A01 T00941095  RH  025%=      5-min Rain = 0
KGU1 192302Z 26009KT 09/M09 A3029 RMK A01 T00941093  RH  026%=      5-min Rain = 0
KGU1 192303Z 27007KT 09/M09 A3029 RMK A01 T00941093  RH  026%=      5-min Rain = 0
KGU1 192304Z 29010KT 10/M09 A3029 RMK A01 T00951091  RH  026%=      5-min Rain = 0
KGU1 192305Z 28011KT 09/M09 A3029 RMK A01 T00941091  RH  026%=      5-min Rain = 0
KGU1 192306Z 27011KT 09/M09 A3029 RMK A01 T00931093  RH  026%=      5-min Rain = 0
KGU1 192307Z 27007KT 09/M09 A3029 RMK A01 T00941094  RH  025%=      5-min Rain = 0
KGU1 192308Z 28007KT 10/M09 A3029 RMK A01 T00951093  RH  025%=      5-min Rain = 0
KGU1 192309Z 29007KT 09/M09 A3029 RMK A01 T00941092  RH  026%=      5-min Rain = 0
KGU1 192310Z 29007KT 09/M09 A3029 RMK A01 T00931093  RH  026%=      5-min Rain = 0
KGU1 192311Z 27006KT 09/M09 A3029 RMK A01 T00911094  RH  026%=      5-min Rain = 0
KGU1 192312Z 27005KT 09/M09 A3029 RMK A01 T00921093  RH  026%=      5-min Rain = 0
KGU1 192313Z 29007KT 09/M09 A3029 RMK A01 T00931092  RH  026%=      5-min Rain = 0
KGU1 192314Z 29007KT 09/M09 A3029 RMK A01 T00931090  RH  026%=      5-min Rain = 0
KGU1 192315Z 28005KT 09/M09 A3029 RMK A01 T00931091  RH  026%=      5-min Rain = 0
KGU1 192316Z 28009KT 09/M09 A3029 RMK A01 T00941091  RH  026%=      5-min Rain = 0
KGU1 192317Z 29008KT 09/M10 A3029 RMK A01 T00931095  RH  025%=      5-min Rain = 0
KGU1 192318Z 29006KT 09/M10 A3029 RMK A01 T00921097  RH  025%=      5-min Rain = 0
KGU1 192319Z 29012KT 09/M10 A3029 RMK A01 T00911096  RH  026%=      5-min Rain = 0
KGU1 192320Z 26007KT 09/M10 A3029 RMK A01 T00901097  RH  025%=      5-min Rain = 0
KGU1 192321Z 27006KT 09/M10 A3029 RMK A01 T00911096  RH  025%=      5-min Rain = 0
KGU1 192322Z 29008G13KT 09/M10 A3029 RMK A01 T00911096  RH  025%=      5-min Rain = 0
KGU1 192323Z 28012KT 09/M10 A3029 RMK A01 T00901096  RH  026%=      5-min Rain = 0
KGU1 192324Z 31005KT 09/M10 A3029 RMK A01 T00901102  RH  025%=      5-min Rain = 0
KGU1 192325Z 29006KT 09/M10 A3029 RMK A01 T00901101  RH  025%=      5-min Rain = 0
KGU1 192326Z 30009G16KT 09/M10 A3029 RMK A01 T00911097  RH  025%=      5-min Rain = 0
KGU1 192327Z 29011KT 09/M10 A3029 RMK A01 T00901097  RH  026%=      5-min Rain = 0
KGU1 192328Z 28010KT 09/M10 A3029 RMK A01 T00881097  RH  026%=      5-min Rain = 0
KGU1 192329Z 29006KT 09/M10 A3029 RMK A01 T00881097  RH  026%=      5-min Rain = 0
KGU1 192330Z 29005KT 09/M10 A3029 RMK A01 T00881095  RH  026%=      5-min Rain = 0
KGU1 192331Z 30008G14KT 09/M10 A3029 RMK A01 T00881095  RH  026%=      5-min Rain = 0
KGU1 192332Z 30012KT 09/M10 A3029 RMK A01 T00881097  RH  026%=      5-min Rain = 0
KGU1 192333Z 29006KT 09/M10 A3029 RMK A01 T00881099  RH  026%=      5-min Rain = 0
KGU1 192334Z 29006KT 09/M10 A3029 RMK A01 T00891098  RH  026%=      5-min Rain = 0
KGU1 192335Z 31008KT 09/M10 A3029 RMK A01 T00881096  RH  026%=      5-min Rain = 0
KGU1 192336Z 30007KT 09/M10 A3029 RMK A01 T00871095  RH  026%=      5-min Rain = 0
KGU1 192337Z 31008KT 09/M10 A3029 RMK A01 T00871098  RH  026%=      5-min Rain = 0
KGU1 192338Z 30009KT 09/M10 A3029 RMK A01 T00871097  RH  026%=      5-min Rain = 0
KGU1 192339Z 29011KT 09/M10 A3028 RMK A01 T00871096  RH  026%=      5-min Rain = 0
KGU1 192340Z 30011KT 09/M10 A3028 RMK A01 T00861096  RH  026%=      5-min Rain = 0
KGU1 192341Z 30010KT 09/M10 A3029 RMK A01 T00851096  RH  027%=      5-min Rain = 0
KGU1 192342Z 30009G15KT 09/M10 A3028 RMK A01 T00851096  RH  027%=      5-min Rain = 0
KGU1 192343Z 30011KT 09/M10 A3029 RMK A01 T00851097  RH  026%=      5-min Rain = 0
KGU1 192344Z 30009KT 09/M10 A3029 RMK A01 T00851098  RH  026%=      5-min Rain = 0
KGU1 192345Z 29008KT 09/M10 A3029 RMK A01 T00851098  RH  026%=      5-min Rain = 0
KGU1 192346Z 30012KT 09/M10 A3029 RMK A01 T00851097  RH  026%=      5-min Rain = 0
KGU1 192347Z 30008KT 09/M10 A3029 RMK A01 T00851100  RH  026%=      5-min Rain = 0
KGU1 192348Z 29008KT 09/M10 A3029 RMK A01 T00851097  RH  026%=      5-min Rain = 0
KGU1 192349Z 30009KT 09/M10 A3029 RMK A01 T00851097  RH  026%=      5-min Rain = 0
KGU1 192350Z 29010KT 08/M10 A3029 RMK A01 T00841097  RH  027%=      5-min Rain = 0
KGU1 192351Z 28010KT 08/M10 A3029 RMK A01 T00841096  RH  027%=      5-min Rain = 0
KGU1 192352Z 28013G19KT 08/M10 A3029 RMK A01 T00831096  RH  027%=      5-min Rain = 0
KGU1 192353Z 27015KT 08/M10 A3028 RMK A01 T00841097  RH  027%=      5-min Rain = 0
KGU1 192354Z 30012KT 08/M10 A3028 RMK A01 T00841096  RH  027%=      5-min Rain = 0
KGU1 192355Z 30015KT 08/M10 A3029 RMK A01 T00831095  RH  027%=      5-min Rain = 0
KGU1 192356Z 30020G25KT 08/M10 A3029 RMK A01 T00821095  RH  027%=      5-min Rain = 0
KGU1 192357Z 27014KT 08/M10 A3029 RMK A01 T00841100  RH  026%=      5-min Rain = 0
KGU1 192358Z 28012G19KT 08/M10 A3029 RMK A01 T00841097  RH  026%=      5-min Rain = 0
KGU1 192359Z 29014G23KT 08/M10 A3029 RMK A01 T00831100  RH  026%=      5-min Rain = 0
KGU1 200000Z 27009KT 08/M11 A3029 RMK A01 T00841106  RH  025%=      5-min Rain = 0
KGU1 200001Z 28012G19KT 08/M10 A3029 RMK A01 T00841100  RH  026%=      5-min Rain = 0
KGU1 200002Z 29014KT 08/M10 A3029 RMK A01 T00821096  RH  027%=      5-min Rain = 0
KGU1 200003Z 29013KT 08/M10 A3029 RMK A01 T00801095  RH  028%=      5-min Rain = 0
KGU1 200004Z 28010KT 08/M10 A3029 RMK A01 T00801096  RH  028%=      5-min Rain = 0
KGU1 200005Z 28014KT 08/M10 A3028 RMK A01 T00801096  RH  028%=      5-min Rain = 0
KGU1 200006Z 29011KT 08/M10 A3029 RMK A01 T00791095  RH  028%=      5-min Rain = 0
KGU1 200007Z 29017KT 08/M10 A3029 RMK A01 T00791095  RH  028%=      5-min Rain = 0
KGU1 200008Z 28013G19KT 08/M10 A3029 RMK A01 T00791096  RH  028%=      5-min Rain = 0
KGU1 200009Z 28007KT 08/M10 A3028 RMK A01 T00801096  RH  027%=      5-min Rain = 0
KGU1 200010Z 29011G19KT 08/M10 A3028 RMK A01 T00791095  RH  028%=      5-min Rain = 0
KGU1 200011Z 28014KT 08/M09 A3028 RMK A01 T00791094  RH  028%=      5-min Rain = 0
KGU1 200012Z 28010KT 08/M09 A3028 RMK A01 T00781094  RH  028%=      5-min Rain = 0
KGU1 200013Z 28010KT 08/M09 A3028 RMK A01 T00781094  RH  028%=      5-min Rain = 0
KGU1 200014Z 31008KT 08/M10 A3028 RMK A01 T00781095  RH  028%=      5-min Rain = 0
KGU1 200015Z 31008KT 08/M09 A3028 RMK A01 T00781094  RH  028%=      5-min Rain = 0
KGU1 200016Z 27014KT 08/M10 A3028 RMK A01 T00771095  RH  028%=      5-min Rain = 0
KGU1 200017Z 27010KT 08/M10 A3028 RMK A01 T00791098  RH  027%=      5-min Rain = 0
KGU1 200018Z 27011KT 08/M10 A3028 RMK A01 T00801099  RH  027%=      5-min Rain = 0
KGU1 200019Z 27010KT 08/M10 A3028 RMK A01 T00801097  RH  027%=      5-min Rain = 0
KGU1 200020Z 26010KT 08/M10 A3028 RMK A01 T00791097  RH  028%=      5-min Rain = 0
KGU1 200021Z 28008KT 08/M09 A3028 RMK A01 T00791094  RH  028%=      5-min Rain = 0
KGU1 200022Z 27008KT 08/M09 A3028 RMK A01 T00771093  RH  029%=      5-min Rain = 0
KGU1 200023Z 30009G15KT 08/M09 A3028 RMK A01 T00751093  RH  029%=      5-min Rain = 0
KGU1 200024Z 31014KT 08/M09 A3028 RMK A01 T00751093  RH  029%=      5-min Rain = 0
KGU1 200025Z 30014KT 08/M09 A3028 RMK A01 T00751094  RH  029%=      5-min Rain = 0
KGU1 200026Z 30015KT 08/M09 A3028 RMK A01 T00761094  RH  029%=      5-min Rain = 0
KGU1 200027Z 31014G19KT 08/M09 A3028 RMK A01 T00771094  RH  029%=      5-min Rain = 0
KGU1 200028Z 31015KT 08/M09 A3028 RMK A01 T00771094  RH  029%=      5-min Rain = 0
KGU1 200029Z 30016KT 08/M09 A3028 RMK A01 T00771093  RH  029%=      5-min Rain = 0
KGU1 200030Z 30018KT 08/M09 A3028 RMK A01 T00771094  RH  029%=      5-min Rain = 0
KGU1 200031Z 29019G25KT 08/M09 A3028 RMK A01 T00781094  RH  028%=      5-min Rain = 0
KGU1 200032Z 29014KT 08/M10 A3028 RMK A01 T00781096  RH  028%=      5-min Rain = 0
KGU1 200033Z 28014KT 08/M09 A3028 RMK A01 T00771093  RH  029%=      5-min Rain = 0
KGU1 200034Z 28012KT 08/M09 A3028 RMK A01 T00761093  RH  029%=      5-min Rain = 0
KGU1 200035Z 28010KT 08/M09 A3028 RMK A01 T00751093  RH  029%=      5-min Rain = 0
KGU1 200036Z 30012G17KT 08/M09 A3028 RMK A01 T00751094  RH  029%=      5-min Rain = 0
KGU1 200037Z 30014KT 08/M10 A3028 RMK A01 T00751095  RH  029%=      5-min Rain = 0
KGU1 200038Z 31014KT 08/M10 A3028 RMK A01 T00761095  RH  028%=      5-min Rain = 0
KGU1 200039Z 29012KT 08/M09 A3027 RMK A01 T00761094  RH  029%=      5-min Rain = 0
KGU1 200040Z 29015KT 08/M10 A3027 RMK A01 T00751095  RH  029%=      5-min Rain = 0
KGU1 200041Z 29018KT 08/M10 A3027 RMK A01 T00751095  RH  029%=      5-min Rain = 0
KGU1 200042Z 29012KT 08/M09 A3027 RMK A01 T00751094  RH  029%=      5-min Rain = 0
KGU1 200043Z 28014KT 07/M09 A3027 RMK A01 T00741093  RH  029%=      5-min Rain = 0
KGU1 200044Z 30015KT 07/M09 A3027 RMK A01 T00741094  RH  029%=      5-min Rain = 0
KGU1 200045Z 29015KT 08/M10 A3028 RMK A01 T00751095  RH  029%=      5-min Rain = 0
KGU1 200046Z 28015KT 08/M10 A3028 RMK A01 T00751095  RH  029%=      5-min Rain = 0
KGU1 200047Z 29014KT 08/M10 A3028 RMK A01 T00751096  RH  028%=      5-min Rain = 0
KGU1 200048Z 31018G23KT 08/M10 A3028 RMK A01 T00751096  RH  028%=      5-min Rain = 0
KGU1 200049Z 30018KT 08/M10 A3027 RMK A01 T00761097  RH  028%=      5-min Rain = 0
KGU1 200050Z 30016KT 08/M10 A3027 RMK A01 T00761096  RH  028%=      5-min Rain = 0
KGU1 200051Z 30015KT 08/M10 A3027 RMK A01 T00761096  RH  028%=      5-min Rain = 0
KGU1 200052Z 31020KT 08/M10 A3027 RMK A01 T00761097  RH  028%=      5-min Rain = 0
KGU1 200053Z 31021G27KT 08/M10 A3028 RMK A01 T00771097  RH  028%=      5-min Rain = 0
KGU1 200054Z 30017G24KT 08/M10 A3028 RMK A01 T00771095  RH  028%=      5-min Rain = 0
KGU1 200055Z 30018KT 08/M10 A3028 RMK A01 T00771096  RH  028%=      5-min Rain = 0
KGU1 200056Z 30020KT 08/M10 A3028 RMK A01 T00771095  RH  028%=      5-min Rain = 0
KGU1 200057Z 30016G21KT 08/M09 A3028 RMK A01 T00761094  RH  029%=      5-min Rain = 0
KGU1 200058Z 30015KT 08/M09 A3028 RMK A01 T00761094  RH  029%=      5-min Rain = 0
KGU1 200059Z 29016KT 08/M09 A3028 RMK A01 T00761094  RH  029%=      5-min Rain = 0
KGU1 200100Z 29016KT 08/M09 A3028 RMK A01 T00761094  RH  029%=      5-min Rain = 0
KGU1 200101Z 29013KT 08/M09 A3028 RMK A01 T00761094  RH  029%=      5-min Rain = 0
KGU1 200102Z 29015KT 08/M09 A3028 RMK A01 T00751093  RH  029%=      5-min Rain = 0
KGU1 200103Z 30016KT 08/M09 A3028 RMK A01 T00751093  RH  029%=      5-min Rain = 0
KGU1 200104Z 31012KT 08/M09 A3028 RMK A01 T00751093  RH  029%=      5-min Rain = 0
KGU1 200105Z 30014KT 08/M09 A3028 RMK A01 T00751093  RH  029%=      5-min Rain = 0
KGU1 200106Z 31015G21KT 08/M09 A3028 RMK A01 T00751094  RH  029%=      5-min Rain = 0
KGU1 200107Z 31019KT 08/M09 A3028 RMK A01 T00761093  RH  029%=      5-min Rain = 0
KGU1 200108Z 31013KT 08/M09 A3028 RMK A01 T00761093  RH  029%=      5-min Rain = 0
KGU1 200109Z 31017G22KT 08/M09 A3028 RMK A01 T00761093  RH  029%=      5-min Rain = 0
KGU1 200110Z 31016G21KT 08/M09 A3028 RMK A01 T00771094  RH  029%=      5-min Rain = 0
KGU1 200111Z 31014KT 08/M09 A3028 RMK A01 T00771093  RH  029%=      5-min Rain = 0
KGU1 200112Z 31014G19KT 08/M09 A3028 RMK A01 T00771093  RH  029%=      5-min Rain = 0
KGU1 200113Z 32014G19KT 08/M10 A3028 RMK A01 T00771096  RH  028%=      5-min Rain = 0
KGU1 200114Z 31014KT 08/M09 A3028 RMK A01 T00771094  RH  028%=      5-min Rain = 0
KGU1 200115Z 30015KT 08/M09 A3028 RMK A01 T00761092  RH  029%=      5-min Rain = 0
KGU1 200116Z 32015KT 08/M09 A3028 RMK A01 T00751091  RH  030%=      5-min Rain = 0
KGU1 200117Z 31018G24KT 08/M09 A3028 RMK A01 T00751091  RH  030%=      5-min Rain = 0
KGU1 200118Z 32017KT 08/M09 A3028 RMK A01 T00761089  RH  030%=      5-min Rain = 0
KGU1 200119Z 32014KT 08/M09 A3028 RMK A01 T00761090  RH  030%=      5-min Rain = 0
KGU1 200120Z 31013KT 08/M09 A3028 RMK A01 T00761090  RH  030%=      5-min Rain = 0
KGU1 200121Z 31017KT 08/M09 A3028 RMK A01 T00751090  RH  030%=      5-min Rain = 0
KGU1 200122Z 31016KT 08/M09 A3028 RMK A01 T00761092  RH  029%=      5-min Rain = 0
KGU1 200123Z 32017KT 08/M09 A3028 RMK A01 T00761091  RH  029%=      5-min Rain = 0
KGU1 200124Z 32015KT 08/M09 A3028 RMK A01 T00761092  RH  029%=      5-min Rain = 0
KGU1 200125Z 32015KT 08/M09 A3028 RMK A01 T00761092  RH  029%=      5-min Rain = 0
KGU1 200126Z 31016KT 08/M09 A3028 RMK A01 T00751092  RH  029%=      5-min Rain = 0
KGU1 200127Z 32018KT 08/M09 A3028 RMK A01 T00751091  RH  030%=      5-min Rain = 0
KGU1 200128Z 32016KT 08/M09 A3028 RMK A01 T00761092  RH  029%=      5-min Rain = 0
KGU1 200129Z 32018G23KT 08/M09 A3028 RMK A01 T00751092  RH  029%=      5-min Rain = 0
KGU1 200130Z 31018KT 08/M09 A3028 RMK A01 T00751091  RH  029%=      5-min Rain = 0
KGU1 200131Z 32014KT 08/M09 A3028 RMK A01 T00761090  RH  030%=      5-min Rain = 0
KGU1 200132Z 32015KT 08/M09 A3028 RMK A01 T00751091  RH  030%=      5-min Rain = 0
KGU1 200133Z 31015KT 07/M09 A3029 RMK A01 T00741091  RH  030%=      5-min Rain = 0
KGU1 200134Z 31017KT 08/M09 A3028 RMK A01 T00751091  RH  030%=      5-min Rain = 0
KGU1 200135Z 32013KT 08/M09 A3028 RMK A01 T00751092  RH  029%=      5-min Rain = 0
KGU1 200136Z 31013KT 08/M09 A3028 RMK A01 T00761092  RH  029%=      5-min Rain = 0
KGU1 200137Z 31016G21KT 08/M09 A3028 RMK A01 T00761092  RH  029%=      5-min Rain = 0
KGU1 200138Z 32015G20KT 08/M09 A3028 RMK A01 T00761093  RH  029%=      5-min Rain = 0
KGU1 200139Z 32016KT 08/M09 A3028 RMK A01 T00761092  RH  029%=      5-min Rain = 0
KGU1 200140Z 33015KT 08/M09 A3028 RMK A01 T00761093  RH  029%=      5-min Rain = 0
KGU1 200141Z 32013KT 08/M09 A3028 RMK A01 T00761091  RH  030%=      5-min Rain = 0
KGU1 200142Z 32015KT 08/M09 A3028 RMK A01 T00751090  RH  030%=      5-min Rain = 0
KGU1 200143Z 32016KT 08/M09 A3028 RMK A01 T00751090  RH  030%=      5-min Rain = 0
KGU1 200144Z 31016KT 08/M09 A3028 RMK A01 T00761091  RH  030%=      5-min Rain = 0
KGU1 200145Z 32012KT 08/M09 A3028 RMK A01 T00751090  RH  030%=      5-min Rain = 0
KGU1 200146Z 31018G23KT 07/M09 A3028 RMK A01 T00741090  RH  030%=      5-min Rain = 0
KGU1 200147Z 31018KT 07/M09 A3028 RMK A01 T00741090  RH  030%=      5-min Rain = 0
KGU1 200148Z 31017KT 08/M09 A3028 RMK A01 T00751090  RH  030%=      5-min Rain = 0
KGU1 200149Z 32018KT 08/M09 A3028 RMK A01 T00751092  RH  029%=      5-min Rain = 0
KGU1 200150Z 32013KT 08/M09 A3028 RMK A01 T00761094  RH  029%=      5-min Rain = 0
KGU1 200151Z 30010KT 08/M09 A3028 RMK A01 T00751093  RH  029%=      5-min Rain = 0
KGU1 200152Z 31016G21KT 08/M10 A3028 RMK A01 T00751097  RH  028%=      5-min Rain = 0
KGU1 200153Z 31011KT 08/M10 A3027 RMK A01 T00781103  RH  026%=      5-min Rain = 0
KGU1 200154Z 30012G17KT 08/M10 A3026 RMK A01 T00761098  RH  028%=      5-min Rain = 0
KGU1 200155Z 28011KT 08/M09 A3026 RMK A01 T00751092  RH  029%=      5-min Rain = 0
KGU1 200156Z 26008KT 07/M09 A3026 RMK A01 T00721091  RH  030%=      5-min Rain = 0
KGU1 200157Z 26007KT 07/M09 A3026 RMK A01 T00701090  RH  031%=      5-min Rain = 0
KGU1 200158Z 29008KT 07/M09 A3026 RMK A01 T00691091  RH  031%=      5-min Rain = 0
KGU1 200159Z 26008KT 07/M09 A3026 RMK A01 T00681091  RH  031%=      5-min Rain = 0
KGU1 200200Z 21006KT 07/M09 A3026 RMK A01 T00681091  RH  031%=      5-min Rain = 0
KGU1 200201Z 18004KT 07/M09 A3026 RMK A01 T00691089  RH  031%=      5-min Rain = 0
KGU1 200202Z 23001KT 07/M09 A3027 RMK A01 T00691090  RH  031%=      5-min Rain = 0
KGU1 200203Z 23001KT 07/M09 A3027 RMK A01 T00701089  RH  031%=      5-min Rain = 0
KGU1 200204Z 29003KT 07/M09 A3028 RMK A01 T00701089  RH  031%=      5-min Rain = 0
KGU1 200205Z 28003KT 07/M09 A3028 RMK A01 T00691090  RH  031%=      5-min Rain = 0
KGU1 200206Z 32001KT 07/M09 A3028 RMK A01 T00681090  RH  031%=      5-min Rain = 0
KGU1 200207Z 31007G14KT 07/M09 A3029 RMK A01 T00671092  RH  031%=      5-min Rain = 0
KGU1 200208Z 28012KT 07/M10 A3029 RMK A01 T00681096  RH  030%=      5-min Rain = 0
KGU1 200209Z 28011KT 07/M10 A3028 RMK A01 T00711100  RH  028%=      5-min Rain = 0
KGU1 200210Z 32011KT 07/M10 A3029 RMK A01 T00721102  RH  028%=      5-min Rain = 0
KGU1 200211Z 33012KT 07/M10 A3029 RMK A01 T00731104  RH  027%=      5-min Rain = 0
KGU1 200212Z 31011G19KT 07/M10 A303 RMK A01 T00741104  RH  027%=      5-min Rain = 0
KGU1 200213Z 32020G28KT 08/M10 A303 RMK A01 T00751104  RH  027%=      5-min Rain = 0
KGU1 200214Z 34010KT 08/M11 A3031 RMK A01 T00771106  RH  026%=      5-min Rain = 0
KGU1 200215Z 33015G22KT 08/M11 A3031 RMK A01 T00781106  RH  026%=      5-min Rain = 0
KGU1 200216Z 35008G14KT 08/M11 A3031 RMK A01 T00801106  RH  026%=      5-min Rain = 0
KGU1 200217Z 30007G13KT 08/M11 A303 RMK A01 T00791106  RH  026%=      5-min Rain = 0
KGU1 200218Z 34006KT 08/M11 A303 RMK A01 T00791107  RH  025%=      5-min Rain = 0
KGU1 200219Z 35005KT 08/M11 A303 RMK A01 T00781106  RH  026%=      5-min Rain = 0
KGU1 200220Z 33008KT 08/M11 A3031 RMK A01 T00761107  RH  026%=      5-min Rain = 0
KGU1 200221Z 31012G18KT 08/M11 A3031 RMK A01 T00761107  RH  026%=      5-min Rain = 0
KGU1 200222Z 33006KT 08/M10 A3031 RMK A01 T00761103  RH  027%=      5-min Rain = 0
KGU1 200223Z 29011KT 08/M10 A303 RMK A01 T00761103  RH  027%=      5-min Rain = 0
KGU1 200224Z 30013KT 08/M11 A3031 RMK A01 T00761107  RH  026%=      5-min Rain = 0
KGU1 200225Z 27011G17KT 08/M11 A303 RMK A01 T00771109  RH  025%=      5-min Rain = 0
KGU1 200226Z 33011KT 08/M11 A303 RMK A01 T00771111  RH  025%=      5-min Rain = 0
KGU1 200227Z 33008KT 08/M11 A303 RMK A01 T00771113  RH  024%=      5-min Rain = 0
KGU1 200228Z 00006KT 08/M11 A303 RMK A01 T00781113  RH  024%=      5-min Rain = 0
KGU1 200229Z 01005KT 08/M11 A303 RMK A01 T00761113  RH  025%=      5-min Rain = 0
KGU1 200230Z 01006KT 07/M11 A303 RMK A01 T00741110  RH  026%=      5-min Rain = 0
KGU1 200231Z 00006KT 07/M11 A303 RMK A01 T00721108  RH  026%=      5-min Rain = 0
KGU1 200232Z 02003KT 07/M11 A303 RMK A01 T00711111  RH  026%=      5-min Rain = 0
KGU1 200233Z 01003KT 07/M12 A303 RMK A01 T00731115  RH  025%=      5-min Rain = 0
KGU1 200234Z 01003KT 07/M11 A303 RMK A01 T00741111  RH  025%=      5-min Rain = 0
KGU1 200235Z 32002KT 07/M11 A303 RMK A01 T00741111  RH  025%=      5-min Rain = 0
KGU1 200236Z 30006KT 07/M11 A303 RMK A01 T00731112  RH  025%=      5-min Rain = 0
KGU1 200237Z 28008KT 07/M12 A303 RMK A01 T00741116  RH  024%=      5-min Rain = 0
KGU1 200238Z 29001KT 08/M12 A303 RMK A01 T00781119  RH  023%=      5-min Rain = 0
KGU1 200239Z 29006G12KT 08/M12 A303 RMK A01 T00791121  RH  023%=      5-min Rain = 0
KGU1 200240Z 27008KT 08/M12 A303 RMK A01 T00781117  RH  024%=      5-min Rain = 0
KGU1 200241Z 25007KT 07/M11 A303 RMK A01 T00741108  RH  026%=      5-min Rain = 0
KGU1 200242Z 25008KT 07/M10 A303 RMK A01 T00711103  RH  028%=      5-min Rain = 0
KGU1 200243Z 24008KT 07/M10 A3029 RMK A01 T00681101  RH  029%=      5-min Rain = 0
KGU1 200244Z 21010KT 07/M10 A3029 RMK A01 T00671101  RH  029%=      5-min Rain = 0
KGU1 200245Z 21010KT 07/M10 A303 RMK A01 T00671100  RH  029%=      5-min Rain = 0
KGU1 200246Z 21009KT 07/M10 A303 RMK A01 T00661101  RH  029%=      5-min Rain = 0
KGU1 200247Z 21010KT 07/M10 A303 RMK A01 T00671100  RH  029%=      5-min Rain = 0
KGU1 200248Z 24009KT 07/M10 A303 RMK A01 T00661099  RH  029%=      5-min Rain = 0
KGU1 200249Z 23010KT 07/M10 A303 RMK A01 T00671103  RH  029%=      5-min Rain = 0
KGU1 200250Z 20009KT 07/M10 A303 RMK A01 T00681102  RH  028%=      5-min Rain = 0
KGU1 200251Z 23011KT 07/M11 A3029 RMK A01 T00681106  RH  028%=      5-min Rain = 0
KGU1 200252Z 25012KT 07/M12 A3029 RMK A01 T00721121  RH  024%=      5-min Rain = 0
KGU1 200253Z 22012KT 08/M12 A3029 RMK A01 T00751121  RH  023%=      5-min Rain = 0
KGU1 200254Z 21008KT 08/M11 A303 RMK A01 T00751110  RH  026%=      5-min Rain = 0
KGU1 200255Z 27008KT 07/M11 A303 RMK A01 T00721109  RH  026%=      5-min Rain = 0
KGU1 200256Z 28008KT 07/M12 A303 RMK A01 T00721121  RH  024%=      5-min Rain = 0
KGU1 200257Z 29008KT 07/M12 A303 RMK A01 T00721118  RH  024%=      5-min Rain = 0
KGU1 200258Z 29008KT 07/M11 A303 RMK A01 T00681113  RH  026%=      5-min Rain = 0
KGU1 200259Z 29008KT 07/M12 A303 RMK A01 T00661118  RH  025%=      5-min Rain = 0
KGU1 200300Z 28010KT 07/M12 A3031 RMK A01 T00681121  RH  024%=      5-min Rain = 0
KGU1 200301Z 29011KT 07/M12 A3031 RMK A01 T00711124  RH  023%=      5-min Rain = 0
KGU1 200302Z 28006KT 08/M13 A303 RMK A01 T00751130  RH  022%=      5-min Rain = 0
KGU1 200303Z 29009KT 08/M13 A3031 RMK A01 T00771129  RH  022%=      5-min Rain = 0
KGU1 200304Z 28013KT 08/M13 A303 RMK A01 T00771128  RH  022%=      5-min Rain = 0
KGU1 200305Z 27015KT 08/M12 A303 RMK A01 T00771123  RH  023%=      5-min Rain = 0
KGU1 200306Z 28012KT 08/M12 A303 RMK A01 T00761124  RH  022%=      5-min Rain = 0
KGU1 200307Z 28014KT 08/M13 A3031 RMK A01 T00761125  RH  022%=      5-min Rain = 0
KGU1 200308Z 28012KT 08/M13 A3031 RMK A01 T00761125  RH  022%=      5-min Rain = 0
KGU1 200309Z 29010KT 08/M13 A3031 RMK A01 T00761125  RH  022%=      5-min Rain = 0
KGU1 200310Z 28012G18KT 08/M13 A3031 RMK A01 T00751125  RH  023%=      5-min Rain = 0
KGU1 200311Z 28014KT 08/M13 A303 RMK A01 T00761131  RH  021%=      5-min Rain = 0
KGU1 200312Z 31011KT 08/M13 A303 RMK A01 T00791134  RH  020%=      5-min Rain = 0
KGU1 200313Z 33007KT 08/M14 A303 RMK A01 T00811135  RH  020%=      5-min Rain = 0
KGU1 200314Z 30011G16KT 08/M13 A303 RMK A01 T00811133  RH  020%=      5-min Rain = 0
KGU1 200315Z 31012KT 08/M13 A303 RMK A01 T00801134  RH  020%=      5-min Rain = 0
KGU1 200316Z 28013KT 08/M13 A303 RMK A01 T00801130  RH  021%=      5-min Rain = 0
KGU1 200317Z 28012G17KT 08/M13 A303 RMK A01 T00781127  RH  022%=      5-min Rain = 0
KGU1 200318Z 27015KT 08/M13 A3029 RMK A01 T00771129  RH  022%=      5-min Rain = 0
KGU1 200319Z 29015KT 08/M14 A3029 RMK A01 T00791135  RH  020%=      5-min Rain = 0
KGU1 200320Z 30014G19KT 08/M14 A303 RMK A01 T00811135  RH  020%=      5-min Rain = 0
KGU1 200321Z 30012KT 08/M14 A303 RMK A01 T00821135  RH  020%=      5-min Rain = 0
KGU1 200322Z 29016KT 08/M13 A3029 RMK A01 T00801132  RH  021%=      5-min Rain = 0
KGU1 200323Z 29017KT 08/M13 A3029 RMK A01 T00791132  RH  021%=      5-min Rain = 0
KGU1 200324Z 30014KT 08/M13 A3029 RMK A01 T00801133  RH  020%=      5-min Rain = 0
KGU1 200325Z 30014KT 08/M14 A3029 RMK A01 T00811136  RH  020%=      5-min Rain = 0
KGU1 200326Z 32012KT 08/M14 A3029 RMK A01 T00811136  RH  020%=      5-min Rain = 0
KGU1 200327Z 33011KT 08/M14 A3029 RMK A01 T00801136  RH  020%=      5-min Rain = 0
KGU1 200328Z 32012KT 08/M14 A3029 RMK A01 T00801137  RH  020%=      5-min Rain = 0
KGU1 200329Z 31012G17KT 08/M14 A3029 RMK A01 T00801137  RH  020%=      5-min Rain = 0
KGU1 200330Z 30016KT 08/M14 A3029 RMK A01 T00811136  RH  020%=      5-min Rain = 0
KGU1 200331Z 31013KT 08/M14 A3029 RMK A01 T00821137  RH  019%=      5-min Rain = 0
KGU1 200332Z 30014KT 08/M14 A3029 RMK A01 T00831137  RH  019%=      5-min Rain = 0
KGU1 200333Z 30015KT 08/M14 A3029 RMK A01 T00821136  RH  020%=      5-min Rain = 0
KGU1 200334Z 31017KT 08/M14 A3029 RMK A01 T00831139  RH  019%=      5-min Rain = 0
KGU1 200335Z 30015KT 08/M14 A3029 RMK A01 T00841139  RH  019%=      5-min Rain = 0
KGU1 200336Z 30013KT 08/M14 A3029 RMK A01 T00831139  RH  019%=      5-min Rain = 0
KGU1 200337Z 31014G19KT 08/M14 A3029 RMK A01 T00831140  RH  019%=      5-min Rain = 0
KGU1 200338Z 31013G18KT 08/M14 A3029 RMK A01 T00831141  RH  019%=      5-min Rain = 0
KGU1 200339Z 30015KT 08/M14 A3029 RMK A01 T00831140  RH  019%=      5-min Rain = 0
KGU1 200340Z 31015KT 09/M14 A3029 RMK A01 T00851143  RH  018%=      5-min Rain = 0
KGU1 200341Z 29009G14KT 09/M14 A3029 RMK A01 T00871144  RH  018%=      5-min Rain = 0
KGU1 200342Z 30016KT 09/M14 A3029 RMK A01 T00861142  RH  018%=      5-min Rain = 0
KGU1 200343Z 30014KT 09/M14 A3029 RMK A01 T00861143  RH  018%=      5-min Rain = 0
KGU1 200344Z 30013KT 09/M14 A3029 RMK A01 T00871143  RH  018%=      5-min Rain = 0
KGU1 200345Z 29011KT 09/M14 A3029 RMK A01 T00881143  RH  018%=      5-min Rain = 0
KGU1 200346Z 27004KT 09/M14 A3029 RMK A01 T00881144  RH  018%=      5-min Rain = 0
KGU1 200347Z 31005KT 09/M14 A3029 RMK A01 T00881143  RH  018%=      5-min Rain = 0
KGU1 200348Z 30005KT 09/M14 A3029 RMK A01 T00861143  RH  018%=      5-min Rain = 0
KGU1 200349Z 33004KT 09/M14 A3029 RMK A01 T00851142  RH  018%=      5-min Rain = 0
KGU1 200350Z 09002KT 08/M14 A3029 RMK A01 T00831142  RH  019%=      5-min Rain = 0
KGU1 200351Z 09000KT 08/M14 A3029 RMK A01 T00811142  RH  019%=      5-min Rain = 0
KGU1 200352Z 31001KT 08/M14 A3029 RMK A01 T00811143  RH  019%=      5-min Rain = 0
KGU1 200353Z 29004KT 08/M14 A3029 RMK A01 T00811142  RH  019%=      5-min Rain = 0
KGU1 200354Z 25003KT 08/M14 A3029 RMK A01 T00811137  RH  020%=      5-min Rain = 0
KGU1 200355Z 19003KT 08/M13 A303 RMK A01 T00791129  RH  021%=      5-min Rain = 0
KGU1 200356Z 20003KT 08/M12 A3029 RMK A01 T00751119  RH  023%=      5-min Rain = 0
KGU1 200357Z 20005KT 07/M12 A3029 RMK A01 T00721115  RH  025%=      5-min Rain = 0
KGU1 200358Z 21005KT 07/M11 A3029 RMK A01 T00681112  RH  026%=      5-min Rain = 0
KGU1 200359Z 21005KT 07/M11 A3029 RMK A01 T00651109  RH  028%=      5-min Rain = 0
KGU1 200400Z 22003KT 06/M11 A3029 RMK A01 T00621107  RH  028%=      5-min Rain = 0
KGU1 200401Z 25002KT 06/M11 A3029 RMK A01 T00621112  RH  027%=      5-min Rain = 0
KGU1 200402Z 28004KT 06/M11 A3029 RMK A01 T00621109  RH  028%=      5-min Rain = 0
KGU1 200403Z 26005KT 06/M11 A303 RMK A01 T00601109  RH  028%=      5-min Rain = 0
KGU1 200404Z 26005KT 06/M11 A303 RMK A01 T00601112  RH  028%=      5-min Rain = 0
KGU1 200405Z 26003KT 06/M11 A303 RMK A01 T00611111  RH  028%=      5-min Rain = 0
KGU1 200406Z 24004KT 06/M11 A303 RMK A01 T00611110  RH  028%=      5-min Rain = 0
KGU1 200407Z 22004KT 06/M11 A303 RMK A01 T00611109  RH  028%=      5-min Rain = 0
KGU1 200408Z 21004KT 06/M11 A3029 RMK A01 T00601106  RH  029%=      5-min Rain = 0
KGU1 200409Z 22004KT 06/M11 A3029 RMK A01 T00601105  RH  029%=      5-min Rain = 0
KGU1 200410Z 23003KT 06/M11 A303 RMK A01 T00591106  RH  029%=      5-min Rain = 0
KGU1 200411Z 27005KT 06/M11 A303 RMK A01 T00581107  RH  029%=      5-min Rain = 0
KGU1 200412Z 28005KT 06/M11 A303 RMK A01 T00561107  RH  030%=      5-min Rain = 0
KGU1 200413Z 27004KT 05/M11 A3029 RMK A01 T00531107  RH  030%=      5-min Rain = 0
KGU1 200414Z 32004KT 05/M11 A3029 RMK A01 T00501107  RH  031%=      5-min Rain = 0
KGU1 200415Z 34004KT 05/M11 A3029 RMK A01 T00471109  RH  031%=      5-min Rain = 0
KGU1 200416Z 31002KT 05/M11 A3029 RMK A01 T00471110  RH  031%=      5-min Rain = 0
KGU1 200417Z 27002KT 05/M11 A3029 RMK A01 T00501111  RH  030%=      5-min Rain = 0
KGU1 200418Z 25003KT 05/M11 A3029 RMK A01 T00521112  RH  029%=      5-min Rain = 0
KGU1 200419Z 26003KT 05/M11 A3029 RMK A01 T00531111  RH  029%=      5-min Rain = 0
KGU1 200420Z 26004KT 05/M11 A3029 RMK A01 T00531110  RH  030%=      5-min Rain = 0
KGU1 200421Z 26006KT 05/M11 A3029 RMK A01 T00521110  RH  030%=      5-min Rain = 0
KGU1 200422Z 27005KT 05/M11 A3029 RMK A01 T00511110  RH  030%=      5-min Rain = 0
KGU1 200423Z 28004KT 05/M11 A3029 RMK A01 T00511110  RH  030%=      5-min Rain = 0
KGU1 200424Z 30003KT 05/M11 A303 RMK A01 T00481110  RH  031%=      5-min Rain = 0
KGU1 200425Z 32004KT 05/M11 A303 RMK A01 T00461110  RH  031%=      5-min Rain = 0
KGU1 200426Z 31004KT 05/M11 A303 RMK A01 T00451111  RH  031%=      5-min Rain = 0
KGU1 200427Z 31004KT 05/M11 A303 RMK A01 T00451110  RH  031%=      5-min Rain = 0
KGU1 200428Z 31003KT 04/M11 A303 RMK A01 T00431110  RH  032%=      5-min Rain = 0
KGU1 200429Z 30003KT 04/M11 A3029 RMK A01 T00421110  RH  032%=      5-min Rain = 0
KGU1 200430Z 28003KT 04/M11 A3029 RMK A01 T00421111  RH  032%=      5-min Rain = 0
KGU1 200431Z 28004KT 04/M11 A303 RMK A01 T00421113  RH  031%=      5-min Rain = 0
KGU1 200432Z 29004KT 04/M11 A303 RMK A01 T00441114  RH  031%=      5-min Rain = 0
KGU1 200433Z 30002KT 05/M12 A303 RMK A01 T00451116  RH  030%=      5-min Rain = 0
KGU1 200434Z 17001KT 05/M12 A303 RMK A01 T00461115  RH  030%=      5-min Rain = 0
KGU1 200435Z 16003KT 05/M11 A303 RMK A01 T00461114  RH  030%=      5-min Rain = 0
KGU1 200436Z 19004KT 05/M12 A303 RMK A01 T00461115  RH  030%=      5-min Rain = 0
KGU1 200437Z 19004KT 05/M12 A303 RMK A01 T00481115  RH  030%=      5-min Rain = 0
KGU1 200438Z 22004KT 05/M11 A303 RMK A01 T00511112  RH  030%=      5-min Rain = 0
KGU1 200439Z 22003KT 05/M11 A303 RMK A01 T00521111  RH  030%=      5-min Rain = 0
KGU1 200440Z 20002KT 05/M11 A303 RMK A01 T00521110  RH  030%=      5-min Rain = 0
KGU1 200441Z 20002KT 05/M11 A303 RMK A01 T00531111  RH  029%=      5-min Rain = 0
KGU1 200442Z 21003KT 05/M11 A303 RMK A01 T00541112  RH  029%=      5-min Rain = 0
KGU1 200443Z 20004KT 05/M11 A303 RMK A01 T00541113  RH  029%=      5-min Rain = 0
KGU1 200444Z 18004KT 05/M11 A303 RMK A01 T00531111  RH  029%=      5-min Rain = 0
KGU1 200445Z 18005KT 05/M11 A303 RMK A01 T00511110  RH  030%=      5-min Rain = 0
KGU1 200446Z 18005KT 05/M11 A303 RMK A01 T00481106  RH  031%=      5-min Rain = 0
KGU1 200447Z 19002KT 05/M11 A303 RMK A01 T00461105  RH  032%=      5-min Rain = 0
KGU1 200448Z 00000KT 04/M11 A303 RMK A01 T00441107  RH  032%=      5-min Rain = 0
KGU1 200449Z 26000KT 04/M11 A303 RMK A01 T00431107  RH  032%=      5-min Rain = 0
KGU1 200450Z 27002KT 04/M11 A303 RMK A01 T00441110  RH  031%=      5-min Rain = 0
KGU1 200451Z 29001KT 05/M12 A303 RMK A01 T00491120  RH  028%=      5-min Rain = 0
KGU1 200452Z 19003KT 05/M12 A303 RMK A01 T00511117  RH  029%=      5-min Rain = 0
KGU1 200453Z 18003KT 05/M12 A303 RMK A01 T00521119  RH  028%=      5-min Rain = 0
KGU1 200454Z 18001KT 06/M12 A303 RMK A01 T00551124  RH  026%=      5-min Rain = 0
KGU1 200455Z 32002G10KT 06/M12 A303 RMK A01 T00581122  RH  026%=      5-min Rain = 0
KGU1 200456Z 35007KT 06/M13 A303 RMK A01 T00611134  RH  023%=      5-min Rain = 0
KGU1 200457Z 32003KT 07/M14 A303 RMK A01 T00681139  RH  021%=      5-min Rain = 0
KGU1 200458Z 33004KT 07/M14 A303 RMK A01 T00691138  RH  021%=      5-min Rain = 0
KGU1 200459Z 30005KT 07/M14 A303 RMK A01 T00701143  RH  020%=      5-min Rain = 0
KGU1 200500Z 29006KT 07/M14 A303 RMK A01 T00731143  RH  020%=      5-min Rain = 0
KGU1 200501Z 27004KT 07/M14 A303 RMK A01 T00721140  RH  020%=      5-min Rain = 0
KGU1 200502Z 27005KT 07/M15 A303 RMK A01 T00731145  RH  019%=      5-min Rain = 0
KGU1 200503Z 27005KT 07/M14 A303 RMK A01 T00731142  RH  020%=      5-min Rain = 0
KGU1 200504Z 27006KT 07/M14 A303 RMK A01 T00701143  RH  020%=      5-min Rain = 0
KGU1 200505Z 28005KT 07/M14 A303 RMK A01 T00691142  RH  020%=      5-min Rain = 0
KGU1 200506Z 28006KT 07/M14 A303 RMK A01 T00671140  RH  021%=      5-min Rain = 0
KGU1 200507Z 27007KT 07/M14 A303 RMK A01 T00661136  RH  022%=      5-min Rain = 0
KGU1 200508Z 27008KT 07/M13 A303 RMK A01 T00661131  RH  023%=      5-min Rain = 0
KGU1 200509Z 26007KT 07/M13 A3029 RMK A01 T00651129  RH  023%=      5-min Rain = 0
KGU1 200510Z 26008KT 06/M13 A3029 RMK A01 T00631126  RH  024%=      5-min Rain = 0
KGU1 200511Z 27009KT 06/M12 A303 RMK A01 T00621123  RH  025%=      5-min Rain = 0
KGU1 200512Z 27007KT 06/M11 A303 RMK A01 T00601114  RH  027%=      5-min Rain = 0
KGU1 200513Z 26005KT 06/M11 A303 RMK A01 T00571111  RH  029%=      5-min Rain = 0
KGU1 200514Z 25003KT 06/M11 A303 RMK A01 T00551111  RH  029%=      5-min Rain = 0
KGU1 200515Z 26003KT 05/M11 A303 RMK A01 T00531114  RH  029%=      5-min Rain = 0
KGU1 200516Z 24003KT 05/M12 A303 RMK A01 T00531115  RH  028%=      5-min Rain = 0
KGU1 200517Z 21002KT 05/M12 A303 RMK A01 T00531116  RH  028%=      5-min Rain = 0
KGU1 200518Z 21003KT 05/M12 A303 RMK A01 T00541118  RH  028%=      5-min Rain = 0
KGU1 200519Z 22004KT 06/M12 A303 RMK A01 T00551121  RH  027%=      5-min Rain = 0
KGU1 200520Z 18004KT 06/M12 A303 RMK A01 T00591116  RH  027%=      5-min Rain = 0
KGU1 200521Z 19004KT 06/M11 A303 RMK A01 T00581110  RH  028%=      5-min Rain = 0
KGU1 200522Z 18003KT 06/M11 A303 RMK A01 T00571109  RH  029%=      5-min Rain = 0
KGU1 200523Z 17003KT 06/M11 A303 RMK A01 T00561108  RH  030%=      5-min Rain = 0
KGU1 200524Z 16005KT 05/M11 A303 RMK A01 T00541106  RH  030%=      5-min Rain = 0
KGU1 200525Z 16005KT 05/M11 A303 RMK A01 T00521105  RH  031%=      5-min Rain = 0
KGU1 200526Z 21002KT 05/M10 A303 RMK A01 T00501104  RH  032%=      5-min Rain = 0
KGU1 200527Z 28001KT 05/M11 A303 RMK A01 T00491109  RH  031%=      5-min Rain = 0
KGU1 200528Z 30001KT 05/M12 A303 RMK A01 T00511115  RH  029%=      5-min Rain = 0
KGU1 200529Z 27006KT 05/M12 A303 RMK A01 T00531116  RH  028%=      5-min Rain = 0
KGU1 200530Z 28003KT 05/M12 A303 RMK A01 T00541118  RH  028%=      5-min Rain = 0
KGU1 200531Z 26001KT 06/M12 A303 RMK A01 T00571118  RH  027%=      5-min Rain = 0
KGU1 200532Z 23001KT 06/M12 A303 RMK A01 T00561118  RH  027%=      5-min Rain = 0
KGU1 200533Z 30002KT 06/M12 A3031 RMK A01 T00571117  RH  027%=      5-min Rain = 0
KGU1 200534Z 29003KT 06/M11 A3031 RMK A01 T00551114  RH  028%=      5-min Rain = 0
KGU1 200535Z 26003KT 05/M11 A303 RMK A01 T00531113  RH  029%=      5-min Rain = 0
KGU1 200536Z 22003KT 05/M11 A303 RMK A01 T00521113  RH  029%=      5-min Rain = 0
KGU1 200537Z 21004KT 05/M11 A303 RMK A01 T00521114  RH  029%=      5-min Rain = 0
KGU1 200538Z 22004KT 05/M11 A303 RMK A01 T00531112  RH  029%=      5-min Rain = 0
KGU1 200539Z 22005KT 05/M11 A303 RMK A01 T00521111  RH  029%=      5-min Rain = 0
KGU1 200540Z 22005KT 05/M11 A303 RMK A01 T00521110  RH  030%=      5-min Rain = 0
KGU1 200541Z 21006KT 05/M11 A303 RMK A01 T00511109  RH  030%=      5-min Rain = 0
KGU1 200542Z 22005KT 05/M11 A303 RMK A01 T00511108  RH  030%=      5-min Rain = 0
KGU1 200543Z 23005KT 05/M11 A303 RMK A01 T00511109  RH  030%=      5-min Rain = 0
KGU1 200544Z 24005KT 05/M11 A303 RMK A01 T00511109  RH  030%=      5-min Rain = 0
KGU1 200545Z 23005KT 05/M11 A3031 RMK A01 T00511109  RH  030%=      5-min Rain = 0
KGU1 200546Z 22007KT 05/M11 A3031 RMK A01 T00511109  RH  030%=      5-min Rain = 0
KGU1 200547Z 22006KT 05/M11 A3031 RMK A01 T00511108  RH  031%=      5-min Rain = 0
KGU1 200548Z 22006KT 05/M11 A303 RMK A01 T00511108  RH  031%=      5-min Rain = 0
KGU1 200549Z 21006KT 05/M11 A303 RMK A01 T00511108  RH  031%=      5-min Rain = 0
KGU1 200550Z 20006KT 05/M11 A303 RMK A01 T00501107  RH  031%=      5-min Rain = 0
KGU1 200551Z 20007KT 05/M11 A303 RMK A01 T00491106  RH  032%=      5-min Rain = 0
KGU1 200552Z 21007KT 05/M11 A303 RMK A01 T00481106  RH  032%=      5-min Rain = 0
KGU1 200553Z 21005KT 05/M11 A3031 RMK A01 T00471105  RH  032%=      5-min Rain = 0
KGU1 200554Z 22007KT 05/M10 A3031 RMK A01 T00471104  RH  032%=      5-min Rain = 0
KGU1 200555Z 21007KT 05/M10 A303 RMK A01 T00471103  RH  033%=      5-min Rain = 0
KGU1 200556Z 21008KT 05/M10 A303 RMK A01 T00471101  RH  033%=      5-min Rain = 0
KGU1 200557Z 22008KT 05/M10 A303 RMK A01 T00471100  RH  034%=      5-min Rain = 0
KGU1 200558Z 21008KT 05/M10 A303 RMK A01 T00451099  RH  034%=      5-min Rain = 0
KGU1 200559Z 22007KT 04/M10 A303 RMK A01 T00441099  RH  034%=      5-min Rain = 0

Page generated in 0.1438 seconds.